Observation data for Estelline on 07/11/2018      Previous  Date       Current Mesonet Observations  Soil Data  Daily Summary Page  Observations in Plain Language
KES1 110500Z 13007KT 26/20 A3008 RMK A01 T02620198  RH  068%=      5-min Rain = 0
KES1 110501Z 13007KT 26/20 A3008 RMK A01 T02620199  RH  068%=      5-min Rain = 0
KES1 110502Z 13007KT 26/20 A3008 RMK A01 T02620199  RH  068%=      5-min Rain = 0
KES1 110503Z 13008KT 26/20 A3008 RMK A01 T02620198  RH  068%=      5-min Rain = 0
KES1 110504Z 13007KT 26/20 A3008 RMK A01 T02620199  RH  068%=      5-min Rain = 0
KES1 110505Z 13007KT 26/20 A3008 RMK A01 T02620199  RH  068%=      5-min Rain = 0
KES1 110506Z 13007KT 26/20 A3008 RMK A01 T02620199  RH  068%=      5-min Rain = 0
KES1 110507Z 13007KT 26/20 A3008 RMK A01 T02620199  RH  068%=      5-min Rain = 0
KES1 110508Z 13007KT 26/20 A3008 RMK A01 T02620199  RH  068%=      5-min Rain = 0
KES1 110509Z 12005KT 26/20 A3008 RMK A01 T02620199  RH  068%=      5-min Rain = 0
KES1 110510Z 12006KT 26/20 A3008 RMK A01 T02610199  RH  069%=      5-min Rain = 0
KES1 110511Z 12006KT 26/20 A3008 RMK A01 T02600199  RH  069%=      5-min Rain = 0
KES1 110512Z 12007KT 26/20 A3008 RMK A01 T02600199  RH  069%=      5-min Rain = 0
KES1 110513Z 12006KT 26/20 A3008 RMK A01 T02600199  RH  069%=      5-min Rain = 0
KES1 110514Z 12007KT 26/20 A3008 RMK A01 T02600199  RH  069%=      5-min Rain = 0
KES1 110515Z 12006KT 26/20 A3008 RMK A01 T02590198  RH  069%=      5-min Rain = 0
KES1 110516Z 12007KT 26/20 A3008 RMK A01 T02600198  RH  069%=      5-min Rain = 0
KES1 110517Z 12006KT 26/20 A3008 RMK A01 T02600198  RH  069%=      5-min Rain = 0
KES1 110518Z 12007KT 26/20 A3008 RMK A01 T02600198  RH  069%=      5-min Rain = 0
KES1 110519Z 12006KT 26/20 A3008 RMK A01 T02600198  RH  069%=      5-min Rain = 0
KES1 110520Z 12007KT 26/20 A3008 RMK A01 T02590198  RH  069%=      5-min Rain = 0
KES1 110521Z 12007KT 26/20 A3008 RMK A01 T02590197  RH  068%=      5-min Rain = 0
KES1 110522Z 12006KT 26/20 A3008 RMK A01 T02600197  RH  069%=      5-min Rain = 0
KES1 110523Z 12007KT 26/20 A3008 RMK A01 T02590197  RH  069%=      5-min Rain = 0
KES1 110524Z 12006KT 26/20 A3008 RMK A01 T02590198  RH  069%=      5-min Rain = 0
KES1 110525Z 12006KT 26/20 A3008 RMK A01 T02590197  RH  069%=      5-min Rain = 0
KES1 110526Z 12006KT 26/20 A3008 RMK A01 T02580197  RH  069%=      5-min Rain = 0
KES1 110527Z 12006KT 26/20 A3008 RMK A01 T02580197  RH  069%=      5-min Rain = 0
KES1 110528Z 12006KT 26/20 A3008 RMK A01 T02590197  RH  069%=      5-min Rain = 0
KES1 110529Z 12007KT 26/20 A3008 RMK A01 T02580196  RH  069%=      5-min Rain = 0
KES1 110530Z 12007KT 26/20 A3008 RMK A01 T02580196  RH  069%=      5-min Rain = 0
KES1 110531Z 12006KT 26/20 A3008 RMK A01 T02590196  RH  069%=      5-min Rain = 0
KES1 110532Z 12007KT 26/20 A3008 RMK A01 T02590197  RH  068%=      5-min Rain = 0
KES1 110533Z 12006KT 26/20 A3008 RMK A01 T02590197  RH  069%=      5-min Rain = 0
KES1 110534Z 12006KT 26/20 A3008 RMK A01 T02590197  RH  069%=      5-min Rain = 0
KES1 110535Z 12006KT 26/20 A3008 RMK A01 T02590197  RH  069%=      5-min Rain = 0
KES1 110536Z 12005KT 26/20 A3008 RMK A01 T02580197  RH  069%=      5-min Rain = 0
KES1 110537Z 12004KT 26/20 A3008 RMK A01 T02580197  RH  069%=      5-min Rain = 0
KES1 110538Z 12005KT 26/20 A3008 RMK A01 T02580197  RH  069%=      5-min Rain = 0
KES1 110539Z 12006KT 26/20 A3008 RMK A01 T02570197  RH  069%=      5-min Rain = 0
KES1 110540Z 12007KT 26/20 A3008 RMK A01 T02570197  RH  070%=      5-min Rain = 0
KES1 110541Z 11007KT 26/20 A3008 RMK A01 T02570197  RH  069%=      5-min Rain = 0
KES1 110542Z 11006KT 26/20 A3008 RMK A01 T02570197  RH  069%=      5-min Rain = 0
KES1 110543Z 11006KT 26/20 A3008 RMK A01 T02580197  RH  069%=      5-min Rain = 0
KES1 110544Z 11005KT 26/20 A3008 RMK A01 T02580197  RH  069%=      5-min Rain = 0
KES1 110545Z 11005KT 26/20 A3008 RMK A01 T02570197  RH  070%=      5-min Rain = 0
KES1 110546Z 11005KT 26/20 A3008 RMK A01 T02560197  RH  070%=      5-min Rain = 0
KES1 110547Z 11004KT 26/20 A3008 RMK A01 T02560197  RH  070%=      5-min Rain = 0
KES1 110548Z 11007KT 26/20 A3008 RMK A01 T02560197  RH  070%=      5-min Rain = 0
KES1 110549Z 12006KT 26/20 A3008 RMK A01 T02570197  RH  070%=      5-min Rain = 0
KES1 110550Z 12006KT 26/20 A3008 RMK A01 T02570197  RH  070%=      5-min Rain = 0
KES1 110551Z 11006KT 26/20 A3008 RMK A01 T02570197  RH  070%=      5-min Rain = 0
KES1 110552Z 12006KT 26/20 A3008 RMK A01 T02570197  RH  070%=      5-min Rain = 0
KES1 110553Z 12006KT 26/20 A3008 RMK A01 T02570197  RH  070%=      5-min Rain = 0
KES1 110554Z 12005KT 26/20 A3008 RMK A01 T02560197  RH  070%=      5-min Rain = 0
KES1 110555Z 11006KT 26/20 A3008 RMK A01 T02560198  RH  070%=      5-min Rain = 0
KES1 110556Z 12007KT 26/20 A3008 RMK A01 T02550197  RH  070%=      5-min Rain = 0
KES1 110557Z 12006KT 26/20 A3008 RMK A01 T02550198  RH  070%=      5-min Rain = 0
KES1 110558Z 12006KT 26/20 A3008 RMK A01 T02550198  RH  071%=      5-min Rain = 0
KES1 110559Z 12008KT 26/20 A3008 RMK A01 T02550198  RH  071%=      5-min Rain = 0
KES1 110600Z 12008KT 26/20 A3008 RMK A01 T02550198  RH  071%=      5-min Rain = 0
KES1 110601Z 11008KT 26/20 A3008 RMK A01 T02550198  RH  071%=      5-min Rain = 0
KES1 110602Z 12008KT 26/20 A3008 RMK A01 T02550198  RH  071%=      5-min Rain = 0
KES1 110603Z 12008KT 26/20 A3008 RMK A01 T02550198  RH  070%=      5-min Rain = 0
KES1 110604Z 12007KT 26/20 A3008 RMK A01 T02550198  RH  071%=      5-min Rain = 0
KES1 110605Z 12009KT 26/20 A3008 RMK A01 T02560198  RH  071%=      5-min Rain = 0
KES1 110606Z 12009KT 26/20 A3008 RMK A01 T02550198  RH  071%=      5-min Rain = 0
KES1 110607Z 12009KT 26/20 A3008 RMK A01 T02550198  RH  071%=      5-min Rain = 0
KES1 110608Z 13008KT 26/20 A3008 RMK A01 T02550198  RH  071%=      5-min Rain = 0
KES1 110609Z 12009KT 26/20 A3008 RMK A01 T02550198  RH  071%=      5-min Rain = 0
KES1 110610Z 13008KT 25/20 A3008 RMK A01 T02540198  RH  071%=      5-min Rain = 0
KES1 110611Z 13010KT 25/20 A3008 RMK A01 T02540198  RH  071%=      5-min Rain = 0
KES1 110612Z 13008KT 25/20 A3008 RMK A01 T02540199  RH  071%=      5-min Rain = 0
KES1 110613Z 13009KT 25/20 A3008 RMK A01 T02540198  RH  071%=      5-min Rain = 0
KES1 110614Z 13009KT 25/20 A3008 RMK A01 T02540198  RH  071%=      5-min Rain = 0
KES1 110615Z 13008KT 25/20 A3008 RMK A01 T02530198  RH  071%=      5-min Rain = 0
KES1 110616Z 13009KT 25/20 A3008 RMK A01 T02540198  RH  071%=      5-min Rain = 0
KES1 110617Z 13008KT 25/20 A3007 RMK A01 T02540198  RH  071%=      5-min Rain = 0
KES1 110618Z 13008KT 25/20 A3007 RMK A01 T02540198  RH  071%=      5-min Rain = 0
KES1 110619Z 13009KT 25/20 A3007 RMK A01 T02530198  RH  071%=      5-min Rain = 0
KES1 110620Z 13009KT 25/20 A3007 RMK A01 T02530198  RH  071%=      5-min Rain = 0
KES1 110621Z 13010KT 25/20 A3007 RMK A01 T02530198  RH  071%=      5-min Rain = 0
KES1 110622Z 13011KT 25/20 A3007 RMK A01 T02530197  RH  071%=      5-min Rain = 0
KES1 110623Z 13011KT 25/20 A3007 RMK A01 T02530197  RH  071%=      5-min Rain = 0
KES1 110624Z 13010KT 25/20 A3007 RMK A01 T02530197  RH  071%=      5-min Rain = 0
KES1 110625Z 13009KT 25/20 A3007 RMK A01 T02530197  RH  071%=      5-min Rain = 0
KES1 110626Z 13010KT 25/20 A3007 RMK A01 T02530196  RH  071%=      5-min Rain = 0
KES1 110627Z 13010KT 25/20 A3007 RMK A01 T02530196  RH  071%=      5-min Rain = 0
KES1 110628Z 13008KT 25/20 A3007 RMK A01 T02530196  RH  071%=      5-min Rain = 0
KES1 110629Z 13008KT 25/20 A3007 RMK A01 T02530196  RH  071%=      5-min Rain = 0
KES1 110630Z 13009KT 25/20 A3007 RMK A01 T02530196  RH  071%=      5-min Rain = 0
KES1 110631Z 14009KT 25/20 A3007 RMK A01 T02530196  RH  071%=      5-min Rain = 0
KES1 110632Z 14009KT 25/20 A3007 RMK A01 T02530196  RH  071%=      5-min Rain = 0
KES1 110633Z 13009KT 25/20 A3007 RMK A01 T02530196  RH  071%=      5-min Rain = 0
KES1 110634Z 13009KT 25/20 A3007 RMK A01 T02530196  RH  071%=      5-min Rain = 0
KES1 110635Z 14009KT 25/20 A3007 RMK A01 T02530196  RH  071%=      5-min Rain = 0
KES1 110636Z 13009KT 25/20 A3007 RMK A01 T02530196  RH  071%=      5-min Rain = 0
KES1 110637Z 14008KT 25/20 A3007 RMK A01 T02520196  RH  071%=      5-min Rain = 0
KES1 110638Z 14008KT 25/20 A3007 RMK A01 T02530196  RH  071%=      5-min Rain = 0
KES1 110639Z 14009KT 25/20 A3007 RMK A01 T02520196  RH  071%=      5-min Rain = 0
KES1 110640Z 14009KT 25/20 A3007 RMK A01 T02530196  RH  071%=      5-min Rain = 0
KES1 110641Z 14009KT 25/20 A3007 RMK A01 T02530196  RH  071%=      5-min Rain = 0
KES1 110642Z 14008KT 25/20 A3007 RMK A01 T02530195  RH  071%=      5-min Rain = 0
KES1 110643Z 14008KT 25/20 A3007 RMK A01 T02530195  RH  071%=      5-min Rain = 0
KES1 110644Z 14009KT 25/20 A3007 RMK A01 T02520195  RH  071%=      5-min Rain = 0
KES1 110645Z 14009KT 25/20 A3007 RMK A01 T02530196  RH  071%=      5-min Rain = 0
KES1 110646Z 14008KT 25/20 A3007 RMK A01 T02520195  RH  071%=      5-min Rain = 0
KES1 110647Z 14009KT 25/20 A3007 RMK A01 T02520195  RH  071%=      5-min Rain = 0
KES1 110648Z 14009KT 25/20 A3007 RMK A01 T02520195  RH  071%=      5-min Rain = 0
KES1 110649Z 14008KT 25/20 A3007 RMK A01 T02520195  RH  071%=      5-min Rain = 0
KES1 110650Z 15009KT 25/20 A3007 RMK A01 T02510195  RH  071%=      5-min Rain = 0
KES1 110651Z 15009KT 25/20 A3007 RMK A01 T02520195  RH  071%=      5-min Rain = 0
KES1 110652Z 14008KT 25/20 A3007 RMK A01 T02520195  RH  071%=      5-min Rain = 0
KES1 110653Z 15007KT 25/20 A3007 RMK A01 T02510195  RH  071%=      5-min Rain = 0
KES1 110654Z 15008KT 25/20 A3007 RMK A01 T02510195  RH  071%=      5-min Rain = 0
KES1 110655Z 15009KT 25/20 A3007 RMK A01 T02510195  RH  071%=      5-min Rain = 0
KES1 110656Z 15010KT 25/20 A3007 RMK A01 T02510195  RH  071%=      5-min Rain = 0
KES1 110657Z 15010KT 25/20 A3007 RMK A01 T02500195  RH  071%=      5-min Rain = 0
KES1 110658Z 15009KT 25/20 A3007 RMK A01 T02500195  RH  071%=      5-min Rain = 0
KES1 110659Z 15010KT 25/20 A3007 RMK A01 T02500195  RH  071%=      5-min Rain = 0
KES1 110700Z 15009KT 25/20 A3007 RMK A01 T02510196  RH  071%=      5-min Rain = 0
KES1 110701Z 15009KT 25/20 A3007 RMK A01 T02500195  RH  071%=      5-min Rain = 0
KES1 110702Z 15009KT 25/20 A3007 RMK A01 T02500195  RH  071%=      5-min Rain = 0
KES1 110703Z 15009KT 25/20 A3007 RMK A01 T02490195  RH  072%=      5-min Rain = 0
KES1 110704Z 15010KT 25/20 A3007 RMK A01 T02490195  RH  072%=      5-min Rain = 0
KES1 110705Z 15008KT 25/20 A3007 RMK A01 T02490195  RH  072%=      5-min Rain = 0
KES1 110706Z 15008KT 25/20 A3007 RMK A01 T02490195  RH  072%=      5-min Rain = 0
KES1 110707Z 16009KT 25/20 A3007 RMK A01 T02480195  RH  072%=      5-min Rain = 0
KES1 110708Z 15009KT 25/20 A3007 RMK A01 T02480195  RH  072%=      5-min Rain = 0
KES1 110709Z 16009KT 25/19 A3007 RMK A01 T02480194  RH  072%=      5-min Rain = 0
KES1 110710Z 16010KT 25/19 A3007 RMK A01 T02470194  RH  072%=      5-min Rain = 0
KES1 110711Z 16008KT 25/19 A3007 RMK A01 T02480194  RH  072%=      5-min Rain = 0
KES1 110712Z 16008KT 25/19 A3007 RMK A01 T02480194  RH  072%=      5-min Rain = 0
KES1 110713Z 16008KT 25/19 A3007 RMK A01 T02470194  RH  072%=      5-min Rain = 0
KES1 110714Z 16009KT 25/19 A3007 RMK A01 T02470194  RH  072%=      5-min Rain = 0
KES1 110715Z 16009KT 25/19 A3007 RMK A01 T02470194  RH  072%=      5-min Rain = 0
KES1 110716Z 16008KT 25/19 A3007 RMK A01 T02460194  RH  072%=      5-min Rain = 0
KES1 110717Z 17009KT 25/19 A3007 RMK A01 T02460194  RH  073%=      5-min Rain = 0
KES1 110718Z 17008KT 25/19 A3007 RMK A01 T02460194  RH  073%=      5-min Rain = 0
KES1 110719Z 16008KT 25/19 A3007 RMK A01 T02460194  RH  073%=      5-min Rain = 0
KES1 110720Z 16008KT 25/19 A3007 RMK A01 T02460194  RH  073%=      5-min Rain = 0
KES1 110721Z 17007KT 25/19 A3007 RMK A01 T02460194  RH  073%=      5-min Rain = 0
KES1 110722Z 16008KT 25/19 A3007 RMK A01 T02450194  RH  073%=      5-min Rain = 0
KES1 110723Z 16008KT 25/19 A3007 RMK A01 T02450194  RH  073%=      5-min Rain = 0
KES1 110724Z 16008KT 25/19 A3007 RMK A01 T02450194  RH  073%=      5-min Rain = 0
KES1 110725Z 16008KT 25/19 A3007 RMK A01 T02450194  RH  073%=      5-min Rain = 0
KES1 110726Z 16007KT 25/19 A3007 RMK A01 T02450194  RH  073%=      5-min Rain = 0
KES1 110727Z 16008KT 25/20 A3007 RMK A01 T02450195  RH  074%=      5-min Rain = 0
KES1 110728Z 17008KT 24/19 A3007 RMK A01 T02440194  RH  074%=      5-min Rain = 0
KES1 110729Z 16006KT 24/20 A3007 RMK A01 T02440195  RH  074%=      5-min Rain = 0
KES1 110730Z 17008KT 24/19 A3007 RMK A01 T02440194  RH  074%=      5-min Rain = 0
KES1 110731Z 16008KT 24/20 A3007 RMK A01 T02440195  RH  074%=      5-min Rain = 0
KES1 110732Z 16007KT 24/19 A3007 RMK A01 T02440194  RH  074%=      5-min Rain = 0
KES1 110733Z 17008KT 24/19 A3007 RMK A01 T02440194  RH  074%=      5-min Rain = 0
KES1 110734Z 16007KT 24/20 A3007 RMK A01 T02440195  RH  074%=      5-min Rain = 0
KES1 110735Z 17007KT 24/20 A3007 RMK A01 T02440195  RH  074%=      5-min Rain = 0
KES1 110736Z 17007KT 24/19 A3007 RMK A01 T02440194  RH  074%=      5-min Rain = 0
KES1 110737Z 17008KT 24/20 A3007 RMK A01 T02440195  RH  074%=      5-min Rain = 0
KES1 110738Z 17007KT 24/19 A3007 RMK A01 T02430194  RH  074%=      5-min Rain = 0
KES1 110739Z 17008KT 24/19 A3007 RMK A01 T02430194  RH  074%=      5-min Rain = 0
KES1 110740Z 17006KT 24/19 A3007 RMK A01 T02430194  RH  074%=      5-min Rain = 0
KES1 110741Z 17007KT 24/19 A3007 RMK A01 T02440194  RH  074%=      5-min Rain = 0
KES1 110742Z 17007KT 24/20 A3007 RMK A01 T02440195  RH  074%=      5-min Rain = 0
KES1 110743Z 17007KT 24/19 A3007 RMK A01 T02430194  RH  074%=      5-min Rain = 0
KES1 110744Z 17007KT 24/19 A3007 RMK A01 T02430194  RH  074%=      5-min Rain = 0
KES1 110745Z 17007KT 24/19 A3007 RMK A01 T02440194  RH  074%=      5-min Rain = 0
KES1 110746Z 17006KT 24/20 A3007 RMK A01 T02440195  RH  074%=      5-min Rain = 0
KES1 110747Z 17006KT 24/20 A3007 RMK A01 T02440195  RH  074%=      5-min Rain = 0
KES1 110748Z 17007KT 24/20 A3007 RMK A01 T02440195  RH  074%=      5-min Rain = 0
KES1 110749Z 17006KT 24/20 A3007 RMK A01 T02440195  RH  074%=      5-min Rain = 0
KES1 110750Z 17006KT 24/20 A3007 RMK A01 T02430195  RH  074%=      5-min Rain = 0
KES1 110751Z 17006KT 24/20 A3007 RMK A01 T02430195  RH  074%=      5-min Rain = 0
KES1 110752Z 17005KT 24/20 A3007 RMK A01 T02430195  RH  074%=      5-min Rain = 0
KES1 110753Z 17007KT 24/20 A3007 RMK A01 T02430195  RH  074%=      5-min Rain = 0
KES1 110754Z 18006KT 24/20 A3007 RMK A01 T02430195  RH  075%=      5-min Rain = 0
KES1 110755Z 17005KT 24/20 A3007 RMK A01 T02430195  RH  075%=      5-min Rain = 0
KES1 110756Z 17006KT 24/20 A3007 RMK A01 T02430195  RH  075%=      5-min Rain = 0
KES1 110757Z 17005KT 24/20 A3007 RMK A01 T02430195  RH  075%=      5-min Rain = 0
KES1 110758Z 17006KT 24/20 A3007 RMK A01 T02420195  RH  075%=      5-min Rain = 0
KES1 110759Z 18006KT 24/20 A3007 RMK A01 T02420195  RH  075%=      5-min Rain = 0
KES1 110800Z 18007KT 24/19 A3007 RMK A01 T02420194  RH  075%=      5-min Rain = 0
KES1 110801Z 18006KT 24/20 A3007 RMK A01 T02420195  RH  075%=      5-min Rain = 0
KES1 110802Z 18005KT 24/19 A3007 RMK A01 T02430194  RH  075%=      5-min Rain = 0
KES1 110803Z 18007KT 24/19 A3007 RMK A01 T02420194  RH  075%=      5-min Rain = 0
KES1 110804Z 18005KT 24/20 A3007 RMK A01 T02430195  RH  074%=      5-min Rain = 0
KES1 110805Z 17005KT 24/20 A3007 RMK A01 T02430195  RH  075%=      5-min Rain = 0
KES1 110806Z 18005KT 24/20 A3007 RMK A01 T02420195  RH  075%=      5-min Rain = 0
KES1 110807Z 17005KT 24/20 A3007 RMK A01 T02420195  RH  075%=      5-min Rain = 0
KES1 110808Z 17005KT 24/20 A3007 RMK A01 T02420195  RH  075%=      5-min Rain = 0
KES1 110809Z 17006KT 24/20 A3007 RMK A01 T02420195  RH  075%=      5-min Rain = 0
KES1 110810Z 18005KT 24/20 A3007 RMK A01 T02410195  RH  075%=      5-min Rain = 0
KES1 110811Z 18006KT 24/20 A3007 RMK A01 T02410195  RH  075%=      5-min Rain = 0
KES1 110812Z 18006KT 24/20 A3007 RMK A01 T02410195  RH  075%=      5-min Rain = 0
KES1 110813Z 18006KT 24/20 A3007 RMK A01 T02410195  RH  075%=      5-min Rain = 0
KES1 110814Z 18005KT 24/20 A3007 RMK A01 T02410195  RH  075%=      5-min Rain = 0
KES1 110815Z 18006KT 24/20 A3007 RMK A01 T02410195  RH  076%=      5-min Rain = 0
KES1 110816Z 18006KT 24/20 A3007 RMK A01 T02410195  RH  075%=      5-min Rain = 0
KES1 110817Z 19005KT 24/20 A3007 RMK A01 T02410195  RH  076%=      5-min Rain = 0
KES1 110818Z 19005KT 24/20 A3007 RMK A01 T02410195  RH  076%=      5-min Rain = 0
KES1 110819Z 18006KT 24/20 A3007 RMK A01 T02400195  RH  076%=      5-min Rain = 0
KES1 110820Z 19006KT 24/20 A3007 RMK A01 T02410196  RH  076%=      5-min Rain = 0
KES1 110821Z 19005KT 24/20 A3007 RMK A01 T02400195  RH  076%=      5-min Rain = 0
KES1 110822Z 19006KT 24/20 A3007 RMK A01 T02400195  RH  076%=      5-min Rain = 0
KES1 110823Z 19005KT 24/20 A3007 RMK A01 T02400195  RH  076%=      5-min Rain = 0
KES1 110824Z 19006KT 24/20 A3007 RMK A01 T02400195  RH  076%=      5-min Rain = 0
KES1 110825Z 19006KT 24/20 A3007 RMK A01 T02400195  RH  076%=      5-min Rain = 0
KES1 110826Z 18006KT 24/20 A3007 RMK A01 T02400195  RH  076%=      5-min Rain = 0
KES1 110827Z 19006KT 24/20 A3006 RMK A01 T02400195  RH  076%=      5-min Rain = 0
KES1 110828Z 19006KT 24/20 A3006 RMK A01 T02400195  RH  076%=      5-min Rain = 0
KES1 110829Z 19005KT 24/20 A3006 RMK A01 T02400195  RH  076%=      5-min Rain = 0
KES1 110830Z 20005KT 24/20 A3006 RMK A01 T02390195  RH  076%=      5-min Rain = 0
KES1 110831Z 19006KT 24/20 A3006 RMK A01 T02390195  RH  076%=      5-min Rain = 0
KES1 110832Z 20005KT 24/20 A3006 RMK A01 T02380195  RH  076%=      5-min Rain = 0
KES1 110833Z 20005KT 24/20 A3006 RMK A01 T02380195  RH  077%=      5-min Rain = 0
KES1 110834Z 20006KT 24/20 A3006 RMK A01 T02370195  RH  077%=      5-min Rain = 0
KES1 110835Z 20005KT 24/20 A3006 RMK A01 T02370195  RH  077%=      5-min Rain = 0
KES1 110836Z 19006KT 24/20 A3006 RMK A01 T02370195  RH  077%=      5-min Rain = 0
KES1 110837Z 19007KT 24/20 A3006 RMK A01 T02370195  RH  077%=      5-min Rain = 0
KES1 110838Z 20006KT 24/20 A3006 RMK A01 T02370195  RH  077%=      5-min Rain = 0
KES1 110839Z 19006KT 24/20 A3006 RMK A01 T02370195  RH  077%=      5-min Rain = 0
KES1 110840Z 20005KT 24/20 A3006 RMK A01 T02360195  RH  077%=      5-min Rain = 0
KES1 110841Z 20006KT 24/20 A3006 RMK A01 T02360195  RH  078%=      5-min Rain = 0
KES1 110842Z 19006KT 24/20 A3006 RMK A01 T02360195  RH  078%=      5-min Rain = 0
KES1 110843Z 20006KT 24/20 A3006 RMK A01 T02360195  RH  078%=      5-min Rain = 0
KES1 110844Z 19006KT 24/19 A3006 RMK A01 T02360194  RH  078%=      5-min Rain = 0
KES1 110845Z 19005KT 24/20 A3006 RMK A01 T02360195  RH  078%=      5-min Rain = 0
KES1 110846Z 20005KT 24/20 A3006 RMK A01 T02360195  RH  078%=      5-min Rain = 0
KES1 110847Z 20006KT 24/20 A3006 RMK A01 T02360195  RH  078%=      5-min Rain = 0
KES1 110848Z 20005KT 24/20 A3006 RMK A01 T02360195  RH  078%=      5-min Rain = 0
KES1 110849Z 19006KT 24/20 A3006 RMK A01 T02350195  RH  078%=      5-min Rain = 0
KES1 110850Z 19006KT 24/20 A3006 RMK A01 T02350195  RH  078%=      5-min Rain = 0
KES1 110851Z 19006KT 24/20 A3006 RMK A01 T02350195  RH  078%=      5-min Rain = 0
KES1 110852Z 19005KT 24/20 A3006 RMK A01 T02350195  RH  078%=      5-min Rain = 0
KES1 110853Z 19005KT 24/20 A3006 RMK A01 T02350195  RH  078%=      5-min Rain = 0
KES1 110854Z 19006KT 23/20 A3006 RMK A01 T02340195  RH  079%=      5-min Rain = 0
KES1 110855Z 19006KT 24/20 A3006 RMK A01 T02350196  RH  079%=      5-min Rain = 0
KES1 110856Z 18005KT 23/20 A3006 RMK A01 T02340195  RH  079%=      5-min Rain = 0
KES1 110857Z 18005KT 23/20 A3006 RMK A01 T02340195  RH  079%=      5-min Rain = 0
KES1 110858Z 19005KT 23/20 A3006 RMK A01 T02340195  RH  079%=      5-min Rain = 0
KES1 110859Z 19006KT 23/20 A3006 RMK A01 T02340195  RH  079%=      5-min Rain = 0
KES1 110900Z 18005KT 23/20 A3006 RMK A01 T02340196  RH  079%=      5-min Rain = 0
KES1 110901Z 19006KT 23/20 A3006 RMK A01 T02340196  RH  079%=      5-min Rain = 0
KES1 110902Z 19005KT 23/20 A3006 RMK A01 T02340196  RH  079%=      5-min Rain = 0
KES1 110903Z 19005KT 23/20 A3006 RMK A01 T02340196  RH  079%=      5-min Rain = 0
KES1 110904Z 18005KT 23/20 A3006 RMK A01 T02340196  RH  079%=      5-min Rain = 0
KES1 110905Z 19005KT 23/20 A3006 RMK A01 T02340196  RH  079%=      5-min Rain = 0
KES1 110906Z 18005KT 23/20 A3006 RMK A01 T02330196  RH  079%=      5-min Rain = 0
KES1 110907Z 18005KT 23/20 A3006 RMK A01 T02330196  RH  079%=      5-min Rain = 0
KES1 110908Z 19005KT 23/20 A3006 RMK A01 T02330196  RH  079%=      5-min Rain = 0
KES1 110909Z 19005KT 23/20 A3006 RMK A01 T02330196  RH  080%=      5-min Rain = 0
KES1 110910Z 19006KT 23/20 A3006 RMK A01 T02330196  RH  080%=      5-min Rain = 0
KES1 110911Z 19005KT 23/20 A3006 RMK A01 T02330195  RH  079%=      5-min Rain = 0
KES1 110912Z 19005KT 23/20 A3006 RMK A01 T02330196  RH  080%=      5-min Rain = 0
KES1 110913Z 19005KT 23/20 A3007 RMK A01 T02320196  RH  080%=      5-min Rain = 0
KES1 110914Z 20005KT 23/20 A3007 RMK A01 T02330196  RH  080%=      5-min Rain = 0
KES1 110915Z 20005KT 23/20 A3007 RMK A01 T02320195  RH  080%=      5-min Rain = 0
KES1 110916Z 20005KT 23/20 A3007 RMK A01 T02320196  RH  080%=      5-min Rain = 0
KES1 110917Z 21004KT 23/20 A3007 RMK A01 T02310195  RH  080%=      5-min Rain = 0
KES1 110918Z 21004KT 23/20 A3007 RMK A01 T02300196  RH  081%=      5-min Rain = 0
KES1 110919Z 21004KT 23/20 A3007 RMK A01 T02300195  RH  081%=      5-min Rain = 0
KES1 110920Z 21004KT 23/20 A3007 RMK A01 T02290195  RH  081%=      5-min Rain = 0
KES1 110921Z 22003KT 23/20 A3007 RMK A01 T02290195  RH  081%=      5-min Rain = 0
KES1 110922Z 21003KT 23/20 A3007 RMK A01 T02280195  RH  082%=      5-min Rain = 0
KES1 110923Z 22003KT 23/20 A3007 RMK A01 T02280196  RH  082%=      5-min Rain = 0
KES1 110924Z 22003KT 23/20 A3007 RMK A01 T02280195  RH  082%=      5-min Rain = 0
KES1 110925Z 22003KT 23/20 A3006 RMK A01 T02270195  RH  082%=      5-min Rain = 0
KES1 110926Z 22003KT 23/20 A3006 RMK A01 T02270195  RH  082%=      5-min Rain = 0
KES1 110927Z 21004KT 23/20 A3006 RMK A01 T02270195  RH  083%=      5-min Rain = 0
KES1 110928Z 22003KT 23/20 A3006 RMK A01 T02260196  RH  083%=      5-min Rain = 0
KES1 110929Z 21003KT 23/20 A3006 RMK A01 T02260195  RH  083%=      5-min Rain = 0
KES1 110930Z 22003KT 23/20 A3006 RMK A01 T02260196  RH  083%=      5-min Rain = 0
KES1 110931Z 22003KT 23/20 A3006 RMK A01 T02250195  RH  083%=      5-min Rain = 0
KES1 110932Z 22002KT 23/20 A3006 RMK A01 T02250195  RH  083%=      5-min Rain = 0
KES1 110933Z 22003KT 23/20 A3006 RMK A01 T02250195  RH  083%=      5-min Rain = 0
KES1 110934Z 22003KT 22/20 A3006 RMK A01 T02240195  RH  084%=      5-min Rain = 0
KES1 110935Z 23003KT 22/20 A3006 RMK A01 T02240195  RH  084%=      5-min Rain = 0
KES1 110936Z 24003KT 22/20 A3006 RMK A01 T02240195  RH  084%=      5-min Rain = 0
KES1 110937Z 25002KT 23/20 A3006 RMK A01 T02250196  RH  084%=      5-min Rain = 0
KES1 110938Z 26002KT 22/20 A3006 RMK A01 T02240195  RH  084%=      5-min Rain = 0
KES1 110939Z 25002KT 22/20 A3006 RMK A01 T02240195  RH  084%=      5-min Rain = 0
KES1 110940Z 29002KT 22/20 A3006 RMK A01 T02240195  RH  084%=      5-min Rain = 0
KES1 110941Z 32002KT 22/20 A3006 RMK A01 T02240195  RH  084%=      5-min Rain = 0
KES1 110942Z 31002KT 22/20 A3006 RMK A01 T02240195  RH  084%=      5-min Rain = 0
KES1 110943Z 30002KT 22/20 A3006 RMK A01 T02230195  RH  084%=      5-min Rain = 0
KES1 110944Z 29002KT 22/20 A3006 RMK A01 T02230195  RH  084%=      5-min Rain = 0
KES1 110945Z 29002KT 22/20 A3006 RMK A01 T02230195  RH  084%=      5-min Rain = 0
KES1 110946Z 29002KT 22/20 A3006 RMK A01 T02220195  RH  084%=      5-min Rain = 0
KES1 110947Z 28002KT 22/20 A3006 RMK A01 T02220195  RH  084%=      5-min Rain = 0
KES1 110948Z 28002KT 22/20 A3006 RMK A01 T02220195  RH  085%=      5-min Rain = 0
KES1 110949Z 28002KT 22/20 A3006 RMK A01 T02220195  RH  085%=      5-min Rain = 0
KES1 110950Z 27002KT 22/20 A3005 RMK A01 T02210195  RH  085%=      5-min Rain = 0
KES1 110951Z 27002KT 22/20 A3005 RMK A01 T02210195  RH  085%=      5-min Rain = 0
KES1 110952Z 26002KT 22/20 A3005 RMK A01 T02220195  RH  085%=      5-min Rain = 0
KES1 110953Z 25002KT 22/20 A3005 RMK A01 T02220195  RH  085%=      5-min Rain = 0
KES1 110954Z 24002KT 22/20 A3005 RMK A01 T02220195  RH  085%=      5-min Rain = 0
KES1 110955Z 25002KT 22/20 A3005 RMK A01 T02210195  RH  085%=      5-min Rain = 0
KES1 110956Z 24002KT 22/20 A3005 RMK A01 T02210195  RH  085%=      5-min Rain = 0
KES1 110957Z 24002KT 22/20 A3005 RMK A01 T02220195  RH  085%=      5-min Rain = 0
KES1 110958Z 24002KT 22/20 A3005 RMK A01 T02220195  RH  085%=      5-min Rain = 0
KES1 110959Z 24002KT 22/20 A3005 RMK A01 T02210195  RH  085%=      5-min Rain = 0
KES1 111000Z 23003KT 22/19 A3005 RMK A01 T02210194  RH  085%=      5-min Rain = 0
KES1 111001Z 23003KT 22/19 A3005 RMK A01 T02210194  RH  085%=      5-min Rain = 0
KES1 111002Z 23003KT 22/19 A3005 RMK A01 T02200194  RH  085%=      5-min Rain = 0
KES1 111003Z 23003KT 22/19 A3005 RMK A01 T02210194  RH  085%=      5-min Rain = 0
KES1 111004Z 23003KT 22/19 A3005 RMK A01 T02200194  RH  085%=      5-min Rain = 0
KES1 111005Z 23002KT 22/19 A3005 RMK A01 T02200194  RH  085%=      5-min Rain = 0
KES1 111006Z 23003KT 22/19 A3005 RMK A01 T02200194  RH  085%=      5-min Rain = 0
KES1 111007Z 23003KT 22/19 A3005 RMK A01 T02190194  RH  085%=      5-min Rain = 0
KES1 111008Z 23003KT 22/19 A3005 RMK A01 T02190194  RH  086%=      5-min Rain = 0
KES1 111009Z 22003KT 22/19 A3005 RMK A01 T02190194  RH  086%=      5-min Rain = 0
KES1 111010Z 23003KT 22/19 A3005 RMK A01 T02190194  RH  086%=      5-min Rain = 0
KES1 111011Z 23003KT 22/20 A3005 RMK A01 T02200195  RH  085%=      5-min Rain = 0
KES1 111012Z 23003KT 22/19 A3005 RMK A01 T02200194  RH  085%=      5-min Rain = 0
KES1 111013Z 24003KT 22/19 A3005 RMK A01 T02210194  RH  085%=      5-min Rain = 0
KES1 111014Z 24002KT 22/19 A3005 RMK A01 T02210194  RH  085%=      5-min Rain = 0
KES1 111015Z 26002KT 22/20 A3005 RMK A01 T02210195  RH  085%=      5-min Rain = 0
KES1 111016Z 30002KT 22/20 A3005 RMK A01 T02210195  RH  085%=      5-min Rain = 0
KES1 111017Z 32002KT 22/19 A3005 RMK A01 T02200194  RH  085%=      5-min Rain = 0
KES1 111018Z 34002KT 22/19 A3005 RMK A01 T02210194  RH  085%=      5-min Rain = 0
KES1 111019Z 35002KT 22/19 A3005 RMK A01 T02210194  RH  085%=      5-min Rain = 0
KES1 111020Z 35002KT 22/20 A3005 RMK A01 T02210195  RH  085%=      5-min Rain = 0
KES1 111021Z 35001KT 22/20 A3005 RMK A01 T02210195  RH  085%=      5-min Rain = 0
KES1 111022Z 35001KT 22/20 A3005 RMK A01 T02220195  RH  085%=      5-min Rain = 0
KES1 111023Z 35001KT 22/20 A3005 RMK A01 T02220195  RH  085%=      5-min Rain = 0
KES1 111024Z 35001KT 22/20 A3005 RMK A01 T02210195  RH  085%=      5-min Rain = 0
KES1 111025Z 35001KT 22/19 A3005 RMK A01 T02210194  RH  085%=      5-min Rain = 0
KES1 111026Z 35000KT 22/19 A3005 RMK A01 T02200194  RH  085%=      5-min Rain = 0
KES1 111027Z 00000KT 22/19 A3005 RMK A01 T02190192  RH  085%=      5-min Rain = 0
KES1 111028Z 07000KT 22/19 A3005 RMK A01 T02170192  RH  086%=      5-min Rain = 0
KES1 111029Z 07002KT 22/19 A3005 RMK A01 T02160192  RH  086%=      5-min Rain = 0
KES1 111030Z 08002KT 22/19 A3005 RMK A01 T02150192  RH  087%=      5-min Rain = 0
KES1 111031Z 08002KT 21/19 A3005 RMK A01 T02140191  RH  087%=      5-min Rain = 0
KES1 111032Z 08002KT 21/19 A3005 RMK A01 T02130191  RH  087%=      5-min Rain = 0
KES1 111033Z 08002KT 21/19 A3005 RMK A01 T02130191  RH  087%=      5-min Rain = 0
KES1 111034Z 09003KT 21/19 A3005 RMK A01 T02130192  RH  088%=      5-min Rain = 0
KES1 111035Z 10003KT 21/19 A3005 RMK A01 T02130191  RH  088%=      5-min Rain = 0
KES1 111036Z 10003KT 21/19 A3005 RMK A01 T02130192  RH  088%=      5-min Rain = 0
KES1 111037Z 10003KT 21/19 A3005 RMK A01 T02130193  RH  088%=      5-min Rain = 0
KES1 111038Z 10002KT 21/19 A3005 RMK A01 T02130192  RH  088%=      5-min Rain = 0
KES1 111039Z 10002KT 21/19 A3005 RMK A01 T02130193  RH  088%=      5-min Rain = 0
KES1 111040Z 09002KT 21/19 A3005 RMK A01 T02140193  RH  088%=      5-min Rain = 0
KES1 111041Z 07002KT 21/19 A3005 RMK A01 T02140193  RH  088%=      5-min Rain = 0
KES1 111042Z 06002KT 21/19 A3005 RMK A01 T02140193  RH  088%=      5-min Rain = 0
KES1 111043Z 07002KT 22/19 A3005 RMK A01 T02150193  RH  088%=      5-min Rain = 0
KES1 111044Z 08001KT 22/19 A3005 RMK A01 T02150194  RH  088%=      5-min Rain = 0
KES1 111045Z 08001KT 22/19 A3005 RMK A01 T02150194  RH  087%=      5-min Rain = 0
KES1 111046Z 06000KT 22/19 A3005 RMK A01 T02150194  RH  087%=      5-min Rain = 0
KES1 111047Z 06001KT 22/19 A3005 RMK A01 T02160194  RH  087%=      5-min Rain = 0
KES1 111048Z 06001KT 22/19 A3005 RMK A01 T02170194  RH  087%=      5-min Rain = 0
KES1 111049Z 00000KT 22/19 A3005 RMK A01 T02170194  RH  087%=      5-min Rain = 0
KES1 111050Z 00000KT 22/19 A3006 RMK A01 T02170194  RH  087%=      5-min Rain = 0
KES1 111051Z 06000KT 22/19 A3006 RMK A01 T02170194  RH  087%=      5-min Rain = 0
KES1 111052Z 00000KT 22/19 A3006 RMK A01 T02180194  RH  087%=      5-min Rain = 0
KES1 111053Z 00000KT 22/19 A3006 RMK A01 T02170194  RH  087%=      5-min Rain = 0
KES1 111054Z 00000KT 22/19 A3006 RMK A01 T02170194  RH  087%=      5-min Rain = 0
KES1 111055Z 00000KT 22/19 A3006 RMK A01 T02170194  RH  087%=      5-min Rain = 0
KES1 111056Z 00000KT 22/19 A3006 RMK A01 T02180194  RH  086%=      5-min Rain = 0
KES1 111057Z 06000KT 22/19 A3006 RMK A01 T02170194  RH  087%=      5-min Rain = 0
KES1 111058Z 05000KT 22/19 A3006 RMK A01 T02170194  RH  087%=      5-min Rain = 0
KES1 111059Z 26001KT 22/20 A3006 RMK A01 T02170195  RH  087%=      5-min Rain = 0
KES1 111100Z 26001KT 22/19 A3006 RMK A01 T02170194  RH  087%=      5-min Rain = 0
KES1 111101Z 26001KT 22/19 A3006 RMK A01 T02170194  RH  087%=      5-min Rain = 0
KES1 111102Z 26000KT 22/19 A3006 RMK A01 T02170194  RH  087%=      5-min Rain = 0
KES1 111103Z 23001KT 22/19 A3006 RMK A01 T02180194  RH  087%=      5-min Rain = 0
KES1 111104Z 23001KT 22/19 A3006 RMK A01 T02180194  RH  086%=      5-min Rain = 0
KES1 111105Z 23001KT 22/19 A3006 RMK A01 T02180194  RH  086%=      5-min Rain = 0
KES1 111106Z 23001KT 22/19 A3006 RMK A01 T02180194  RH  086%=      5-min Rain = 0
KES1 111107Z 23000KT 22/19 A3006 RMK A01 T02170193  RH  086%=      5-min Rain = 0
KES1 111108Z 00000KT 22/19 A3006 RMK A01 T02160192  RH  086%=      5-min Rain = 0
KES1 111109Z 00000KT 21/19 A3006 RMK A01 T02140192  RH  087%=      5-min Rain = 0
KES1 111110Z 00000KT 21/19 A3006 RMK A01 T02130191  RH  087%=      5-min Rain = 0
KES1 111111Z 00000KT 21/19 A3006 RMK A01 T02120192  RH  088%=      5-min Rain = 0
KES1 111112Z 00000KT 21/19 A3006 RMK A01 T02120192  RH  089%=      5-min Rain = 0
KES1 111113Z 00000KT 21/19 A3006 RMK A01 T02120192  RH  089%=      5-min Rain = 0
KES1 111114Z 00000KT 21/19 A3006 RMK A01 T02120193  RH  089%=      5-min Rain = 0
KES1 111115Z 00000KT 21/19 A3006 RMK A01 T02130193  RH  089%=      5-min Rain = 0
KES1 111116Z 00000KT 21/20 A3006 RMK A01 T02140195  RH  089%=      5-min Rain = 0
KES1 111117Z 00000KT 22/20 A3006 RMK A01 T02150195  RH  088%=      5-min Rain = 0
KES1 111118Z 00000KT 22/19 A3006 RMK A01 T02160194  RH  087%=      5-min Rain = 0
KES1 111119Z 00000KT 22/19 A3006 RMK A01 T02160194  RH  087%=      5-min Rain = 0
KES1 111120Z 00000KT 22/19 A3006 RMK A01 T02160193  RH  087%=      5-min Rain = 0
KES1 111121Z 23000KT 22/19 A3006 RMK A01 T02160193  RH  087%=      5-min Rain = 0
KES1 111122Z 01001KT 22/19 A3006 RMK A01 T02150193  RH  087%=      5-min Rain = 0
KES1 111123Z 06001KT 22/19 A3006 RMK A01 T02150193  RH  087%=      5-min Rain = 0
KES1 111124Z 07001KT 21/19 A3006 RMK A01 T02140192  RH  087%=      5-min Rain = 0
KES1 111125Z 08002KT 21/19 A3006 RMK A01 T02130192  RH  088%=      5-min Rain = 0
KES1 111126Z 08002KT 21/19 A3006 RMK A01 T02120192  RH  088%=      5-min Rain = 0
KES1 111127Z 09002KT 21/19 A3006 RMK A01 T02120191  RH  088%=      5-min Rain = 0
KES1 111128Z 09002KT 21/19 A3006 RMK A01 T02110191  RH  088%=      5-min Rain = 0
KES1 111129Z 09003KT 21/19 A3006 RMK A01 T02110191  RH  088%=      5-min Rain = 0
KES1 111130Z 10003KT 21/19 A3006 RMK A01 T02100192  RH  089%=      5-min Rain = 0
KES1 111131Z 10003KT 21/19 A3006 RMK A01 T02110193  RH  089%=      5-min Rain = 0
KES1 111132Z 11003KT 21/19 A3006 RMK A01 T02110193  RH  089%=      5-min Rain = 0
KES1 111133Z 10003KT 21/19 A3006 RMK A01 T02120193  RH  089%=      5-min Rain = 0
KES1 111134Z 11003KT 21/19 A3006 RMK A01 T02130194  RH  089%=      5-min Rain = 0
KES1 111135Z 13003KT 21/19 A3006 RMK A01 T02140194  RH  088%=      5-min Rain = 0
KES1 111136Z 13003KT 21/19 A3006 RMK A01 T02140194  RH  088%=      5-min Rain = 0
KES1 111137Z 13002KT 22/20 A3006 RMK A01 T02150195  RH  088%=      5-min Rain = 0
KES1 111138Z 13002KT 22/20 A3006 RMK A01 T02160195  RH  088%=      5-min Rain = 0
KES1 111139Z 14003KT 22/20 A3006 RMK A01 T02170195  RH  088%=      5-min Rain = 0
KES1 111140Z 15003KT 22/20 A3006 RMK A01 T02180196  RH  087%=      5-min Rain = 0
KES1 111141Z 16003KT 22/20 A3006 RMK A01 T02180195  RH  087%=      5-min Rain = 0
KES1 111142Z 17002KT 22/20 A3006 RMK A01 T02190196  RH  087%=      5-min Rain = 0
KES1 111143Z 18003KT 22/20 A3006 RMK A01 T02190196  RH  086%=      5-min Rain = 0
KES1 111144Z 19003KT 22/20 A3006 RMK A01 T02200195  RH  086%=      5-min Rain = 0
KES1 111145Z 20003KT 22/20 A3006 RMK A01 T02210195  RH  085%=      5-min Rain = 0
KES1 111146Z 20003KT 22/20 A3006 RMK A01 T02220195  RH  084%=      5-min Rain = 0
KES1 111147Z 20003KT 22/20 A3007 RMK A01 T02240195  RH  084%=      5-min Rain = 0
KES1 111148Z 20002KT 23/20 A3007 RMK A01 T02260195  RH  083%=      5-min Rain = 0
KES1 111149Z 21003KT 23/20 A3007 RMK A01 T02270195  RH  082%=      5-min Rain = 0
KES1 111150Z 19002KT 23/20 A3007 RMK A01 T02280196  RH  082%=      5-min Rain = 0
KES1 111151Z 19003KT 23/20 A3007 RMK A01 T02280195  RH  082%=      5-min Rain = 0
KES1 111152Z 19003KT 23/20 A3007 RMK A01 T02290196  RH  082%=      5-min Rain = 0
KES1 111153Z 19003KT 23/20 A3007 RMK A01 T02290195  RH  081%=      5-min Rain = 0
KES1 111154Z 18003KT 23/20 A3007 RMK A01 T02300196  RH  081%=      5-min Rain = 0
KES1 111155Z 18003KT 23/20 A3007 RMK A01 T02300196  RH  081%=      5-min Rain = 0
KES1 111156Z 18002KT 23/20 A3007 RMK A01 T02300196  RH  081%=      5-min Rain = 0
KES1 111157Z 16002KT 23/20 A3007 RMK A01 T02290195  RH  081%=      5-min Rain = 0
KES1 111158Z 16001KT 23/20 A3007 RMK A01 T02270195  RH  082%=      5-min Rain = 0
KES1 111159Z 16001KT 23/20 A3007 RMK A01 T02270195  RH  082%=      5-min Rain = 0
KES1 111200Z 16001KT 23/20 A3007 RMK A01 T02270195  RH  082%=      5-min Rain = 0
KES1 111201Z 15001KT 23/20 A3007 RMK A01 T02270196  RH  083%=      5-min Rain = 0
KES1 111202Z 15001KT 23/20 A3007 RMK A01 T02270197  RH  083%=      5-min Rain = 0
KES1 111203Z 14001KT 23/20 A3007 RMK A01 T02280197  RH  083%=      5-min Rain = 0
KES1 111204Z 14001KT 23/20 A3007 RMK A01 T02280197  RH  083%=      5-min Rain = 0
KES1 111205Z 14002KT 23/20 A3007 RMK A01 T02280197  RH  083%=      5-min Rain = 0
KES1 111206Z 14002KT 23/20 A3007 RMK A01 T02280197  RH  083%=      5-min Rain = 0
KES1 111207Z 13002KT 23/20 A3007 RMK A01 T02270197  RH  083%=      5-min Rain = 0
KES1 111208Z 13002KT 23/20 A3007 RMK A01 T02270199  RH  084%=      5-min Rain = 0
KES1 111209Z 12002KT 23/20 A3007 RMK A01 T02280200  RH  085%=      5-min Rain = 0
KES1 111210Z 11002KT 23/20 A3007 RMK A01 T02270199  RH  084%=      5-min Rain = 0
KES1 111211Z 10002KT 23/20 A3007 RMK A01 T02270198  RH  084%=      5-min Rain = 0
KES1 111212Z 09002KT 23/20 A3007 RMK A01 T02280198  RH  084%=      5-min Rain = 0
KES1 111213Z 08002KT 23/20 A3007 RMK A01 T02280198  RH  083%=      5-min Rain = 0
KES1 111214Z 08002KT 23/20 A3007 RMK A01 T02290199  RH  083%=      5-min Rain = 0
KES1 111215Z 09003KT 23/20 A3007 RMK A01 T02300200  RH  083%=      5-min Rain = 0
KES1 111216Z 09002KT 23/20 A3007 RMK A01 T02310199  RH  082%=      5-min Rain = 0
KES1 111217Z 08002KT 23/20 A3007 RMK A01 T02310199  RH  082%=      5-min Rain = 0
KES1 111218Z 09002KT 23/20 A3007 RMK A01 T02320199  RH  082%=      5-min Rain = 0
KES1 111219Z 10002KT 23/20 A3007 RMK A01 T02310199  RH  082%=      5-min Rain = 0
KES1 111220Z 10003KT 23/20 A3007 RMK A01 T02320200  RH  082%=      5-min Rain = 0
KES1 111221Z 11002KT 23/20 A3008 RMK A01 T02320200  RH  082%=      5-min Rain = 0
KES1 111222Z 11002KT 23/20 A3008 RMK A01 T02320200  RH  082%=      5-min Rain = 0
KES1 111223Z 11002KT 23/20 A3008 RMK A01 T02330200  RH  082%=      5-min Rain = 0
KES1 111224Z 13002KT 23/20 A3008 RMK A01 T02340201  RH  082%=      5-min Rain = 0
KES1 111225Z 12002KT 24/20 A3008 RMK A01 T02350201  RH  081%=      5-min Rain = 0
KES1 111226Z 10002KT 24/20 A3008 RMK A01 T02360201  RH  081%=      5-min Rain = 0
KES1 111227Z 10003KT 24/20 A3008 RMK A01 T02370200  RH  080%=      5-min Rain = 0
KES1 111228Z 10003KT 24/20 A3008 RMK A01 T02370200  RH  080%=      5-min Rain = 0
KES1 111229Z 09003KT 24/20 A3008 RMK A01 T02380200  RH  079%=      5-min Rain = 0
KES1 111230Z 09003KT 24/20 A3008 RMK A01 T02380200  RH  079%=      5-min Rain = 0
KES1 111231Z 09002KT 24/20 A3008 RMK A01 T02390200  RH  079%=      5-min Rain = 0
KES1 111232Z 08002KT 24/20 A3008 RMK A01 T02390201  RH  079%=      5-min Rain = 0
KES1 111233Z 08002KT 24/20 A3008 RMK A01 T02400201  RH  079%=      5-min Rain = 0
KES1 111234Z 09003KT 24/20 A3008 RMK A01 T02410201  RH  078%=      5-min Rain = 0
KES1 111235Z 09002KT 24/20 A3008 RMK A01 T02410201  RH  078%=      5-min Rain = 0
KES1 111236Z 09002KT 24/20 A3008 RMK A01 T02420201  RH  078%=      5-min Rain = 0
KES1 111237Z 09002KT 24/20 A3008 RMK A01 T02420201  RH  078%=      5-min Rain = 0
KES1 111238Z 09002KT 24/20 A3008 RMK A01 T02430202  RH  078%=      5-min Rain = 0
KES1 111239Z 09003KT 24/20 A3008 RMK A01 T02440201  RH  077%=      5-min Rain = 0
KES1 111240Z 09003KT 24/20 A3008 RMK A01 T02440202  RH  077%=      5-min Rain = 0
KES1 111241Z 09003KT 25/20 A3008 RMK A01 T02450201  RH  077%=      5-min Rain = 0
KES1 111242Z 09003KT 25/20 A3008 RMK A01 T02460201  RH  076%=      5-min Rain = 0
KES1 111243Z 09004KT 25/20 A3008 RMK A01 T02460200  RH  076%=      5-min Rain = 0
KES1 111244Z 09004KT 25/20 A3008 RMK A01 T02460200  RH  076%=      5-min Rain = 0
KES1 111245Z 10003KT 25/20 A3008 RMK A01 T02460201  RH  076%=      5-min Rain = 0
KES1 111246Z 10004KT 25/20 A3008 RMK A01 T02460201  RH  076%=      5-min Rain = 0
KES1 111247Z 11004KT 25/20 A3008 RMK A01 T02460200  RH  075%=      5-min Rain = 0
KES1 111248Z 11004KT 25/20 A3008 RMK A01 T02460200  RH  076%=      5-min Rain = 0
KES1 111249Z 11004KT 25/20 A3008 RMK A01 T02460200  RH  076%=      5-min Rain = 0
KES1 111250Z 11004KT 25/20 A3008 RMK A01 T02460200  RH  076%=      5-min Rain = 0
KES1 111251Z 12004KT 25/20 A3008 RMK A01 T02460201  RH  076%=      5-min Rain = 0
KES1 111252Z 12004KT 25/20 A3008 RMK A01 T02470200  RH  075%=      5-min Rain = 0
KES1 111253Z 12004KT 25/20 A3008 RMK A01 T02470200  RH  075%=      5-min Rain = 0
KES1 111254Z 11004KT 25/20 A3008 RMK A01 T02470200  RH  075%=      5-min Rain = 0
KES1 111255Z 12004KT 25/20 A3008 RMK A01 T02470200  RH  075%=      5-min Rain = 0
KES1 111256Z 11004KT 25/20 A3008 RMK A01 T02470200  RH  075%=      5-min Rain = 0
KES1 111257Z 11004KT 25/20 A3008 RMK A01 T02470200  RH  075%=      5-min Rain = 0
KES1 111258Z 11004KT 25/20 A3008 RMK A01 T02470200  RH  075%=      5-min Rain = 0
KES1 111259Z 11004KT 25/20 A3009 RMK A01 T02480201  RH  075%=      5-min Rain = 0
KES1 111300Z 11004KT 25/20 A3009 RMK A01 T02480199  RH  074%=      5-min Rain = 0
KES1 111301Z 10004KT 25/20 A3009 RMK A01 T02500200  RH  074%=      5-min Rain = 0
KES1 111302Z 10005KT 25/20 A3009 RMK A01 T02500200  RH  074%=      5-min Rain = 0
KES1 111303Z 10005KT 25/20 A3009 RMK A01 T02500200  RH  074%=      5-min Rain = 0
KES1 111304Z 10005KT 25/20 A3009 RMK A01 T02490199  RH  074%=      5-min Rain = 0
KES1 111305Z 11005KT 25/20 A3009 RMK A01 T02480199  RH  074%=      5-min Rain = 0
KES1 111306Z 11005KT 25/20 A3009 RMK A01 T02470199  RH  074%=      5-min Rain = 0
KES1 111307Z 11005KT 25/20 A3009 RMK A01 T02470198  RH  074%=      5-min Rain = 0
KES1 111308Z 12005KT 25/20 A3009 RMK A01 T02470199  RH  074%=      5-min Rain = 0
KES1 111309Z 12005KT 25/20 A3009 RMK A01 T02480200  RH  075%=      5-min Rain = 0
KES1 111310Z 11005KT 25/20 A3009 RMK A01 T02490200  RH  074%=      5-min Rain = 0
KES1 111311Z 11005KT 25/20 A3009 RMK A01 T02500200  RH  074%=      5-min Rain = 0
KES1 111312Z 11005KT 25/20 A3009 RMK A01 T02500200  RH  074%=      5-min Rain = 0
KES1 111313Z 12004KT 25/20 A3009 RMK A01 T02500200  RH  074%=      5-min Rain = 0
KES1 111314Z 12005KT 25/20 A3009 RMK A01 T02520201  RH  074%=      5-min Rain = 0
KES1 111315Z 11005KT 25/20 A3009 RMK A01 T02530200  RH  072%=      5-min Rain = 0
KES1 111316Z 12005KT 25/20 A3009 RMK A01 T02530199  RH  072%=      5-min Rain = 0
KES1 111317Z 13004KT 25/20 A3009 RMK A01 T02530201  RH  073%=      5-min Rain = 0
KES1 111318Z 13005KT 25/20 A3009 RMK A01 T02540200  RH  072%=      5-min Rain = 0
KES1 111319Z 12004KT 25/20 A3009 RMK A01 T02540200  RH  072%=      5-min Rain = 0
KES1 111320Z 11005KT 26/20 A3009 RMK A01 T02550201  RH  072%=      5-min Rain = 0
KES1 111321Z 10004KT 26/20 A3009 RMK A01 T02560201  RH  072%=      5-min Rain = 0
KES1 111322Z 12005KT 26/20 A3009 RMK A01 T02580200  RH  071%=      5-min Rain = 0
KES1 111323Z 11005KT 26/20 A3009 RMK A01 T02580200  RH  070%=      5-min Rain = 0
KES1 111324Z 11004KT 26/20 A3009 RMK A01 T02570200  RH  071%=      5-min Rain = 0
KES1 111325Z 12005KT 26/20 A3009 RMK A01 T02580201  RH  071%=      5-min Rain = 0
KES1 111326Z 11005KT 26/20 A3009 RMK A01 T02590200  RH  070%=      5-min Rain = 0
KES1 111327Z 11005KT 26/20 A3009 RMK A01 T02600200  RH  070%=      5-min Rain = 0
KES1 111328Z 11005KT 26/20 A3009 RMK A01 T02600200  RH  069%=      5-min Rain = 0
KES1 111329Z 11005KT 26/20 A3009 RMK A01 T02610201  RH  069%=      5-min Rain = 0
KES1 111330Z 12005KT 26/20 A3009 RMK A01 T02620201  RH  069%=      5-min Rain = 0
KES1 111331Z 12005KT 26/20 A3009 RMK A01 T02620202  RH  069%=      5-min Rain = 0
KES1 111332Z 10004KT 26/20 A3009 RMK A01 T02620201  RH  069%=      5-min Rain = 0
KES1 111333Z 11004KT 26/20 A3009 RMK A01 T02610200  RH  069%=      5-min Rain = 0
KES1 111334Z 11005KT 26/20 A3009 RMK A01 T02610202  RH  070%=      5-min Rain = 0
KES1 111335Z 11004KT 26/20 A3009 RMK A01 T02630202  RH  069%=      5-min Rain = 0
KES1 111336Z 11005KT 26/20 A3009 RMK A01 T02630202  RH  069%=      5-min Rain = 0
KES1 111337Z 10004KT 26/20 A3009 RMK A01 T02630201  RH  069%=      5-min Rain = 0
KES1 111338Z 11004KT 26/20 A3009 RMK A01 T02620202  RH  069%=      5-min Rain = 0
KES1 111339Z 12003KT 26/20 A3009 RMK A01 T02620202  RH  069%=      5-min Rain = 0
KES1 111340Z 09004KT 26/20 A3009 RMK A01 T02630203  RH  069%=      5-min Rain = 0
KES1 111341Z 09003KT 27/20 A3009 RMK A01 T02650202  RH  068%=      5-min Rain = 0
KES1 111342Z 12003KT 27/20 A3009 RMK A01 T02660202  RH  068%=      5-min Rain = 0
KES1 111343Z 10003KT 27/20 A3009 RMK A01 T02670202  RH  067%=      5-min Rain = 0
KES1 111344Z 13003KT 27/20 A3009 RMK A01 T02670203  RH  068%=      5-min Rain = 0
KES1 111345Z 16004KT 27/20 A3009 RMK A01 T02680202  RH  067%=      5-min Rain = 0
KES1 111346Z 15005KT 27/20 A3009 RMK A01 T02680200  RH  066%=      5-min Rain = 0
KES1 111347Z 15004KT 27/20 A3009 RMK A01 T02690200  RH  066%=      5-min Rain = 0
KES1 111348Z 13002KT 27/20 A3009 RMK A01 T02680199  RH  066%=      5-min Rain = 0
KES1 111349Z 16004KT 27/20 A3009 RMK A01 T02680201  RH  067%=      5-min Rain = 0
KES1 111350Z 14004KT 27/20 A3009 RMK A01 T02690202  RH  067%=      5-min Rain = 0
KES1 111351Z 14003KT 27/20 A3009 RMK A01 T02690201  RH  066%=      5-min Rain = 0
KES1 111352Z 12003KT 27/20 A3009 RMK A01 T02690200  RH  066%=      5-min Rain = 0
KES1 111353Z 12003KT 27/20 A3009 RMK A01 T02690201  RH  066%=      5-min Rain = 0
KES1 111354Z 13003KT 27/20 A3009 RMK A01 T02700201  RH  066%=      5-min Rain = 0
KES1 111355Z 14004KT 27/20 A3009 RMK A01 T02700200  RH  066%=      5-min Rain = 0
KES1 111356Z 15003KT 27/20 A3009 RMK A01 T02700200  RH  065%=      5-min Rain = 0
KES1 111357Z 15003KT 27/20 A3009 RMK A01 T02700202  RH  066%=      5-min Rain = 0
KES1 111358Z 15003KT 27/20 A301 RMK A01 T02710202  RH  066%=      5-min Rain = 0
KES1 111359Z 14003KT 27/20 A301 RMK A01 T02710202  RH  066%=      5-min Rain = 0
KES1 111400Z 16002KT 27/20 A301 RMK A01 T02720204  RH  066%=      5-min Rain = 0
KES1 111401Z 19001KT 27/20 A301 RMK A01 T02730202  RH  065%=      5-min Rain = 0
KES1 111402Z 19002KT 27/20 A301 RMK A01 T02730202  RH  065%=      5-min Rain = 0
KES1 111403Z 14003KT 27/20 A301 RMK A01 T02730203  RH  065%=      5-min Rain = 0
KES1 111404Z 14003KT 27/20 A301 RMK A01 T02730202  RH  065%=      5-min Rain = 0
KES1 111405Z 15004KT 28/21 A301 RMK A01 T02750205  RH  065%=      5-min Rain = 0
KES1 111406Z 15004KT 28/20 A301 RMK A01 T02770203  RH  064%=      5-min Rain = 0
KES1 111407Z 15004KT 28/20 A301 RMK A01 T02770202  RH  064%=      5-min Rain = 0
KES1 111408Z 11004KT 28/20 A301 RMK A01 T02770201  RH  064%=      5-min Rain = 0
KES1 111409Z 11004KT 28/20 A301 RMK A01 T02750201  RH  064%=      5-min Rain = 0
KES1 111410Z 10004KT 27/20 A301 RMK A01 T02740201  RH  064%=      5-min Rain = 0
KES1 111411Z 12005KT 27/20 A301 RMK A01 T02740201  RH  065%=      5-min Rain = 0
KES1 111412Z 12003KT 28/20 A301 RMK A01 T02750201  RH  064%=      5-min Rain = 0
KES1 111413Z 12003KT 28/20 A301 RMK A01 T02770203  RH  064%=      5-min Rain = 0
KES1 111414Z 16001KT 28/20 A301 RMK A01 T02790203  RH  063%=      5-min Rain = 0
KES1 111415Z 21002KT 28/20 A301 RMK A01 T02800200  RH  062%=      5-min Rain = 0
KES1 111416Z 21001KT 28/20 A301 RMK A01 T02800199  RH  061%=      5-min Rain = 0
KES1 111417Z 17001KT 28/20 A301 RMK A01 T02810199  RH  061%=      5-min Rain = 0
KES1 111418Z 15001KT 28/20 A301 RMK A01 T02830199  RH  061%=      5-min Rain = 0
KES1 111419Z 11001KT 28/20 A301 RMK A01 T02820201  RH  061%=      5-min Rain = 0
KES1 111420Z 13003KT 28/21 A301 RMK A01 T02840206  RH  062%=      5-min Rain = 0
KES1 111421Z 16005KT 29/20 A301 RMK A01 T02880202  RH  060%=      5-min Rain = 0
KES1 111422Z 18004KT 29/20 A301 RMK A01 T02900199  RH  058%=      5-min Rain = 0
KES1 111423Z 16003KT 29/20 A301 RMK A01 T02900199  RH  058%=      5-min Rain = 0
KES1 111424Z 17001KT 29/20 A301 RMK A01 T02890199  RH  058%=      5-min Rain = 0
KES1 111425Z 16004KT 29/20 A301 RMK A01 T02900198  RH  058%=      5-min Rain = 0
KES1 111426Z 17004KT 29/19 A301 RMK A01 T02910194  RH  056%=      5-min Rain = 0
KES1 111427Z 17003KT 29/20 A301 RMK A01 T02900195  RH  056%=      5-min Rain = 0
KES1 111428Z 17003KT 29/20 A301 RMK A01 T02910195  RH  056%=      5-min Rain = 0
KES1 111429Z 21003KT 29/19 A301 RMK A01 T02920193  RH  055%=      5-min Rain = 0
KES1 111430Z 24001KT 29/19 A301 RMK A01 T02910193  RH  055%=      5-min Rain = 0
KES1 111431Z 21002KT 29/19 A301 RMK A01 T02910194  RH  056%=      5-min Rain = 0
KES1 111432Z 18003KT 29/19 A301 RMK A01 T02910194  RH  056%=      5-min Rain = 0
KES1 111433Z 19003KT 29/19 A301 RMK A01 T02920192  RH  055%=      5-min Rain = 0
KES1 111434Z 22003KT 29/19 A301 RMK A01 T02930191  RH  054%=      5-min Rain = 0
KES1 111435Z 24002KT 29/19 A301 RMK A01 T02930192  RH  054%=      5-min Rain = 0
KES1 111436Z 22004KT 29/19 A301 RMK A01 T02940193  RH  055%=      5-min Rain = 0
KES1 111437Z 24003KT 30/19 A301 RMK A01 T02950191  RH  054%=      5-min Rain = 0
KES1 111438Z 25003KT 29/19 A301 RMK A01 T02940186  RH  052%=      5-min Rain = 0
KES1 111439Z 21002KT 30/19 A301 RMK A01 T02950185  RH  052%=      5-min Rain = 0
KES1 111440Z 21004KT 30/19 A301 RMK A01 T02950187  RH  052%=      5-min Rain = 0
KES1 111441Z 22004KT 30/19 A301 RMK A01 T02950191  RH  053%=      5-min Rain = 0
KES1 111442Z 21006KT 30/19 A301 RMK A01 T02950191  RH  053%=      5-min Rain = 0
KES1 111443Z 22007KT 30/19 A301 RMK A01 T02960191  RH  053%=      5-min Rain = 0
KES1 111444Z 23006KT 30/19 A301 RMK A01 T02960187  RH  052%=      5-min Rain = 0
KES1 111445Z 25006KT 30/19 A301 RMK A01 T02950186  RH  052%=      5-min Rain = 0
KES1 111446Z 24007KT 30/18 A301 RMK A01 T02960183  RH  051%=      5-min Rain = 0
KES1 111447Z 24007KT 30/18 A301 RMK A01 T02960183  RH  050%=      5-min Rain = 0
KES1 111448Z 24006KT 30/18 A301 RMK A01 T02970183  RH  050%=      5-min Rain = 0
KES1 111449Z 25004KT 30/19 A301 RMK A01 T02980185  RH  051%=      5-min Rain = 0
KES1 111450Z 25004KT 30/19 A301 RMK A01 T02980185  RH  051%=      5-min Rain = 0
KES1 111451Z 22004KT 30/19 A301 RMK A01 T02990189  RH  051%=      5-min Rain = 0
KES1 111452Z 23004KT 30/19 A301 RMK A01 T03020192  RH  052%=      5-min Rain = 0
KES1 111453Z 22006KT 31/19 A301 RMK A01 T03050191  RH  051%=      5-min Rain = 0
KES1 111454Z 22006KT 31/19 A301 RMK A01 T03050191  RH  051%=      5-min Rain = 0
KES1 111455Z 23006KT 30/19 A301 RMK A01 T03040189  RH  050%=      5-min Rain = 0
KES1 111456Z 21008KT 31/19 A301 RMK A01 T03050186  RH  049%=      5-min Rain = 0
KES1 111457Z 21008KT 30/18 A301 RMK A01 T03040183  RH  048%=      5-min Rain = 0
KES1 111458Z 22008KT 30/18 A301 RMK A01 T03010184  RH  049%=      5-min Rain = 0
KES1 111459Z 25007KT 30/19 A301 RMK A01 T03020186  RH  050%=      5-min Rain = 0
KES1 111500Z 25006KT 30/19 A301 RMK A01 T03030185  RH  049%=      5-min Rain = 0
KES1 111501Z 24008KT 31/19 A301 RMK A01 T03050187  RH  049%=      5-min Rain = 0
KES1 111502Z 23007KT 31/19 A301 RMK A01 T03060187  RH  049%=      5-min Rain = 0
KES1 111503Z 22007KT 31/19 A301 RMK A01 T03070185  RH  048%=      5-min Rain = 0
KES1 111504Z 23007KT 31/18 A301 RMK A01 T03080184  RH  048%=      5-min Rain = 0
KES1 111505Z 22007KT 31/18 A301 RMK A01 T03080181  RH  047%=      5-min Rain = 0
KES1 111506Z 21007KT 31/18 A301 RMK A01 T03080182  RH  047%=      5-min Rain = 0
KES1 111507Z 20007KT 31/18 A301 RMK A01 T03080180  RH  046%=      5-min Rain = 0
KES1 111508Z 21010KT 31/18 A301 RMK A01 T03080181  RH  047%=      5-min Rain = 0
KES1 111509Z 22008KT 31/18 A301 RMK A01 T03070181  RH  047%=      5-min Rain = 0
KES1 111510Z 23007KT 31/18 A301 RMK A01 T03070183  RH  047%=      5-min Rain = 0
KES1 111511Z 22010KT 31/18 A301 RMK A01 T03090180  RH  046%=      5-min Rain = 0
KES1 111512Z 23008KT 31/18 A301 RMK A01 T03090178  RH  046%=      5-min Rain = 0
KES1 111513Z 23007KT 31/18 A301 RMK A01 T03090180  RH  046%=      5-min Rain = 0
KES1 111514Z 24007KT 31/18 A301 RMK A01 T03090180  RH  046%=      5-min Rain = 0
KES1 111515Z 23005KT 31/18 A3009 RMK A01 T03100182  RH  046%=      5-min Rain = 0
KES1 111516Z 23007KT 31/18 A3009 RMK A01 T03120183  RH  046%=      5-min Rain = 0
KES1 111517Z 23008KT 31/18 A3009 RMK A01 T03140178  RH  044%=      5-min Rain = 0
KES1 111518Z 23009KT 31/18 A3009 RMK A01 T03130179  RH  045%=      5-min Rain = 0
KES1 111519Z 23008KT 31/18 A3009 RMK A01 T03120179  RH  045%=      5-min Rain = 0
KES1 111520Z 22009KT 31/18 A3009 RMK A01 T03110180  RH  046%=      5-min Rain = 0
KES1 111521Z 23010KT 31/18 A3009 RMK A01 T03110178  RH  045%=      5-min Rain = 0
KES1 111522Z 24009KT 31/18 A3009 RMK A01 T03100178  RH  045%=      5-min Rain = 0
KES1 111523Z 22007KT 31/18 A3009 RMK A01 T03100179  RH  045%=      5-min Rain = 0
KES1 111524Z 21009KT 31/18 A3009 RMK A01 T03110180  RH  046%=      5-min Rain = 0
KES1 111525Z 22007KT 31/18 A3009 RMK A01 T03120180  RH  045%=      5-min Rain = 0
KES1 111526Z 22010KT 31/18 A3009 RMK A01 T03130179  RH  045%=      5-min Rain = 0
KES1 111527Z 21008KT 31/18 A3009 RMK A01 T03140178  RH  044%=      5-min Rain = 0
KES1 111528Z 21008KT 31/18 A3009 RMK A01 T03130177  RH  044%=      5-min Rain = 0
KES1 111529Z 22010KT 31/18 A3009 RMK A01 T03120177  RH  045%=      5-min Rain = 0
KES1 111530Z 22010KT 31/18 A3009 RMK A01 T03100176  RH  045%=      5-min Rain = 0
KES1 111531Z 21010KT 31/18 A3009 RMK A01 T03100177  RH  045%=      5-min Rain = 0
KES1 111532Z 22013KT 31/18 A3009 RMK A01 T03110176  RH  044%=      5-min Rain = 0
KES1 111533Z 23009KT 31/18 A3009 RMK A01 T03110177  RH  045%=      5-min Rain = 0
KES1 111534Z 23008KT 31/18 A3009 RMK A01 T03120176  RH  044%=      5-min Rain = 0
KES1 111535Z 23010KT 31/18 A3009 RMK A01 T03130179  RH  045%=      5-min Rain = 0
KES1 111536Z 22008KT 31/18 A3009 RMK A01 T03140179  RH  044%=      5-min Rain = 0
KES1 111537Z 22006KT 31/18 A3009 RMK A01 T03130179  RH  045%=      5-min Rain = 0
KES1 111538Z 22006KT 31/18 A3009 RMK A01 T03130179  RH  045%=      5-min Rain = 0
KES1 111539Z 23004KT 31/18 A3009 RMK A01 T03140181  RH  045%=      5-min Rain = 0
KES1 111540Z 21004KT 32/18 A3009 RMK A01 T03170180  RH  044%=      5-min Rain = 0
KES1 111541Z 23004KT 32/18 A3009 RMK A01 T03170181  RH  044%=      5-min Rain = 0
KES1 111542Z 23007KT 32/18 A3009 RMK A01 T03200184  RH  045%=      5-min Rain = 0
KES1 111543Z 24007KT 32/18 A3009 RMK A01 T03210182  RH  044%=      5-min Rain = 0
KES1 111544Z 24008KT 32/18 A3009 RMK A01 T03200182  RH  044%=      5-min Rain = 0
KES1 111545Z 21010KT 32/18 A3009 RMK A01 T03200182  RH  044%=      5-min Rain = 0
KES1 111546Z 20010KT 32/18 A3008 RMK A01 T03200178  RH  043%=      5-min Rain = 0
KES1 111547Z 21008KT 32/18 A3008 RMK A01 T03180178  RH  043%=      5-min Rain = 0
KES1 111548Z 22008KT 32/18 A3008 RMK A01 T03170178  RH  043%=      5-min Rain = 0
KES1 111549Z 21005KT 32/18 A3008 RMK A01 T03150178  RH  044%=      5-min Rain = 0
KES1 111550Z 21005KT 31/18 A3008 RMK A01 T03140179  RH  045%=      5-min Rain = 0
KES1 111551Z 22006KT 32/18 A3008 RMK A01 T03160181  RH  044%=      5-min Rain = 0
KES1 111552Z 22007KT 32/18 A3008 RMK A01 T03190179  RH  043%=      5-min Rain = 0
KES1 111553Z 22006KT 32/18 A3008 RMK A01 T03200179  RH  043%=      5-min Rain = 0
KES1 111554Z 23008KT 32/18 A3008 RMK A01 T03200181  RH  044%=      5-min Rain = 0
KES1 111555Z 21008KT 32/18 A3008 RMK A01 T03210180  RH  043%=      5-min Rain = 0
KES1 111556Z 21005KT 32/18 A3008 RMK A01 T03220178  RH  042%=      5-min Rain = 0
KES1 111557Z 23008KT 32/18 A3008 RMK A01 T03230182  RH  043%=      5-min Rain = 0
KES1 111558Z 23005KT 33/18 A3008 RMK A01 T03250180  RH  042%=      5-min Rain = 0
KES1 111559Z 20006KT 33/18 A3008 RMK A01 T03250181  RH  042%=      5-min Rain = 0
KES1 111600Z 19007KT 33/18 A3008 RMK A01 T03250180  RH  042%=      5-min Rain = 0
KES1 111601Z 19007KT 33/18 A3008 RMK A01 T03250180  RH  042%=      5-min Rain = 0
KES1 111602Z 19007KT 33/18 A3008 RMK A01 T03250181  RH  042%=      5-min Rain = 0
KES1 111603Z 19006KT 33/18 A3008 RMK A01 T03270182  RH  042%=      5-min Rain = 0
KES1 111604Z 20003KT 33/18 A3008 RMK A01 T03310182  RH  041%=      5-min Rain = 0
KES1 111605Z 19007KT 33/18 A3008 RMK A01 T03310180  RH  041%=      5-min Rain = 0
KES1 111606Z 17007KT 33/18 A3008 RMK A01 T03270179  RH  041%=      5-min Rain = 0
KES1 111607Z 17006KT 33/18 A3008 RMK A01 T03250180  RH  042%=      5-min Rain = 0
KES1 111608Z 19005KT 33/18 A3008 RMK A01 T03270181  RH  042%=      5-min Rain = 0
KES1 111609Z 20010KT 33/18 A3008 RMK A01 T03280179  RH  041%=      5-min Rain = 0
KES1 111610Z 21009KT 33/18 A3008 RMK A01 T03270177  RH  041%=      5-min Rain = 0
KES1 111611Z 21006KT 33/18 A3008 RMK A01 T03250178  RH  042%=      5-min Rain = 0
KES1 111612Z 20011KT 33/18 A3008 RMK A01 T03260178  RH  041%=      5-min Rain = 0
KES1 111613Z 21011KT 33/18 A3008 RMK A01 T03270176  RH  041%=      5-min Rain = 0
KES1 111614Z 20009KT 33/18 A3008 RMK A01 T03250176  RH  041%=      5-min Rain = 0
KES1 111615Z 19009KT 32/18 A3008 RMK A01 T03230176  RH  042%=      5-min Rain = 0
KES1 111616Z 20009KT 32/17 A3008 RMK A01 T03230174  RH  041%=      5-min Rain = 0
KES1 111617Z 20006KT 32/17 A3008 RMK A01 T03240174  RH  041%=      5-min Rain = 0
KES1 111618Z 21010KT 32/18 A3008 RMK A01 T03230176  RH  042%=      5-min Rain = 0
KES1 111619Z 19007KT 33/17 A3008 RMK A01 T03250174  RH  041%=      5-min Rain = 0
KES1 111620Z 21009G15KT 33/18 A3008 RMK A01 T03270176  RH  041%=      5-min Rain = 0
KES1 111621Z 21009KT 33/17 A3008 RMK A01 T03280173  RH  040%=      5-min Rain = 0
KES1 111622Z 20012KT 33/17 A3008 RMK A01 T03280172  RH  040%=      5-min Rain = 0
KES1 111623Z 20011KT 33/17 A3008 RMK A01 T03280169  RH  039%=      5-min Rain = 0
KES1 111624Z 20010KT 33/17 A3008 RMK A01 T03280170  RH  039%=      5-min Rain = 0
KES1 111625Z 21009KT 33/17 A3008 RMK A01 T03280172  RH  039%=      5-min Rain = 0
KES1 111626Z 22007KT 33/17 A3008 RMK A01 T03280174  RH  040%=      5-min Rain = 0
KES1 111627Z 19007KT 33/17 A3008 RMK A01 T03320174  RH  039%=      5-min Rain = 0
KES1 111628Z 21005KT 34/17 A3008 RMK A01 T03350171  RH  038%=      5-min Rain = 0
KES1 111629Z 24008KT 34/17 A3008 RMK A01 T03350173  RH  038%=      5-min Rain = 0
KES1 111630Z 22007KT 34/18 A3008 RMK A01 T03360175  RH  038%=      5-min Rain = 0
KES1 111631Z 18007KT 34/18 A3008 RMK A01 T03380180  RH  039%=      5-min Rain = 0
KES1 111632Z 17006KT 34/18 A3008 RMK A01 T03390181  RH  039%=      5-min Rain = 0
KES1 111633Z 18008KT 34/18 A3008 RMK A01 T03370182  RH  040%=      5-min Rain = 0
KES1 111634Z 20007KT 34/18 A3008 RMK A01 T03350175  RH  039%=      5-min Rain = 0
KES1 111635Z 20008KT 34/17 A3008 RMK A01 T03350173  RH  038%=      5-min Rain = 0
KES1 111636Z 21007KT 34/17 A3008 RMK A01 T03350171  RH  038%=      5-min Rain = 0
KES1 111637Z 22009KT 33/17 A3008 RMK A01 T03340172  RH  038%=      5-min Rain = 0
KES1 111638Z 22006KT 33/17 A3008 RMK A01 T03330173  RH  039%=      5-min Rain = 0
KES1 111639Z 17008KT 34/18 A3008 RMK A01 T03360177  RH  039%=      5-min Rain = 0
KES1 111640Z 16006KT 34/18 A3008 RMK A01 T03380180  RH  039%=      5-min Rain = 0
KES1 111641Z 16006KT 34/18 A3008 RMK A01 T03380177  RH  038%=      5-min Rain = 0
KES1 111642Z 21006KT 34/18 A3008 RMK A01 T03380178  RH  039%=      5-min Rain = 0
KES1 111643Z 23008KT 34/18 A3007 RMK A01 T03420177  RH  038%=      5-min Rain = 0
KES1 111644Z 24009KT 35/17 A3008 RMK A01 T03450173  RH  036%=      5-min Rain = 0
KES1 111645Z 23008KT 34/17 A3007 RMK A01 T03430173  RH  037%=      5-min Rain = 0
KES1 111646Z 21008KT 34/17 A3007 RMK A01 T03420171  RH  036%=      5-min Rain = 0
KES1 111647Z 23005KT 34/17 A3007 RMK A01 T03390170  RH  037%=      5-min Rain = 0
KES1 111648Z 20005KT 34/17 A3007 RMK A01 T03370171  RH  037%=      5-min Rain = 0
KES1 111649Z 17007KT 34/18 A3007 RMK A01 T03380177  RH  039%=      5-min Rain = 0
KES1 111650Z 18006KT 34/18 A3007 RMK A01 T03380179  RH  039%=      5-min Rain = 0
KES1 111651Z 19005KT 34/18 A3007 RMK A01 T03380179  RH  039%=      5-min Rain = 0
KES1 111652Z 21006KT 34/18 A3007 RMK A01 T03360178  RH  039%=      5-min Rain = 0
KES1 111653Z 24005KT 34/17 A3007 RMK A01 T03380171  RH  037%=      5-min Rain = 0
KES1 111654Z 22002KT 34/17 A3007 RMK A01 T03380169  RH  037%=      5-min Rain = 0
KES1 111655Z 18003KT 34/17 A3007 RMK A01 T03380171  RH  037%=      5-min Rain = 0
KES1 111656Z 19002KT 34/17 A3007 RMK A01 T03380172  RH  037%=      5-min Rain = 0
KES1 111657Z 23003KT 34/17 A3007 RMK A01 T03370174  RH  038%=      5-min Rain = 0
KES1 111658Z 20005KT 34/17 A3007 RMK A01 T03380174  RH  038%=      5-min Rain = 0
KES1 111659Z 20008KT 34/17 A3007 RMK A01 T03390172  RH  037%=      5-min Rain = 0
KES1 111700Z 20007KT 34/17 A3007 RMK A01 T03380173  RH  038%=      5-min Rain = 0
KES1 111701Z 19007KT 34/17 A3007 RMK A01 T03380172  RH  037%=      5-min Rain = 0
KES1 111702Z 18004KT 34/17 A3007 RMK A01 T03360169  RH  037%=      5-min Rain = 0
KES1 111703Z 20004KT 33/17 A3007 RMK A01 T03340169  RH  037%=      5-min Rain = 0
KES1 111704Z 23007KT 33/17 A3007 RMK A01 T03340173  RH  038%=      5-min Rain = 0
KES1 111705Z 22009KT 34/17 A3007 RMK A01 T03370171  RH  037%=      5-min Rain = 0
KES1 111706Z 19008KT 34/17 A3007 RMK A01 T03380173  RH  037%=      5-min Rain = 0
KES1 111707Z 19009KT 34/17 A3007 RMK A01 T03400171  RH  037%=      5-min Rain = 0
KES1 111708Z 19008KT 34/17 A3007 RMK A01 T03390174  RH  037%=      5-min Rain = 0
KES1 111709Z 18007KT 34/17 A3007 RMK A01 T03420173  RH  037%=      5-min Rain = 0
KES1 111710Z 16007KT 34/17 A3007 RMK A01 T03440172  RH  036%=      5-min Rain = 0
KES1 111711Z 17008KT 34/17 A3007 RMK A01 T03440168  RH  035%=      5-min Rain = 0
KES1 111712Z 16009KT 34/16 A3007 RMK A01 T03440163  RH  034%=      5-min Rain = 0
KES1 111713Z 16007KT 35/16 A3006 RMK A01 T03450163  RH  034%=      5-min Rain = 0
KES1 111714Z 13009KT 35/16 A3006 RMK A01 T03470164  RH  034%=      5-min Rain = 0
KES1 111715Z 11005KT 35/17 A3006 RMK A01 T03460165  RH  034%=      5-min Rain = 0
KES1 111716Z 15005G10KT 34/17 A3006 RMK A01 T03430169  RH  035%=      5-min Rain = 0
KES1 111717Z 16008KT 35/17 A3006 RMK A01 T03460174  RH  036%=      5-min Rain = 0
KES1 111718Z 17006KT 35/17 A3006 RMK A01 T03500172  RH  035%=      5-min Rain = 0
KES1 111719Z 20008KT 35/17 A3006 RMK A01 T03490171  RH  035%=      5-min Rain = 0
KES1 111720Z 20008KT 35/17 A3006 RMK A01 T03490168  RH  034%=      5-min Rain = 0
KES1 111721Z 20007KT 35/17 A3006 RMK A01 T03500168  RH  034%=      5-min Rain = 0
KES1 111722Z 23006KT 35/17 A3006 RMK A01 T03480168  RH  034%=      5-min Rain = 0
KES1 111723Z 22005KT 35/17 A3006 RMK A01 T03460165  RH  034%=      5-min Rain = 0
KES1 111724Z 21009KT 34/17 A3006 RMK A01 T03440165  RH  034%=      5-min Rain = 0
KES1 111725Z 21005KT 34/17 A3006 RMK A01 T03420166  RH  035%=      5-min Rain = 0
KES1 111726Z 20007KT 34/17 A3006 RMK A01 T03430167  RH  035%=      5-min Rain = 0
KES1 111727Z 19004KT 34/17 A3006 RMK A01 T03430166  RH  035%=      5-min Rain = 0
KES1 111728Z 21006KT 34/17 A3006 RMK A01 T03440165  RH  034%=      5-min Rain = 0
KES1 111729Z 15007KT 34/16 A3006 RMK A01 T03440161  RH  033%=      5-min Rain = 0
KES1 111730Z 17010KT 35/16 A3006 RMK A01 T03490155  RH  031%=      5-min Rain = 0
KES1 111731Z 18009KT 35/15 A3006 RMK A01 T03500153  RH  031%=      5-min Rain = 0
KES1 111732Z 17010KT 35/16 A3006 RMK A01 T03510155  RH  031%=      5-min Rain = 0
KES1 111733Z 17007KT 35/16 A3006 RMK A01 T03520155  RH  031%=      5-min Rain = 0
KES1 111734Z 16008KT 35/16 A3006 RMK A01 T03520159  RH  032%=      5-min Rain = 0
KES1 111735Z 15010KT 36/16 A3006 RMK A01 T03550161  RH  032%=      5-min Rain = 0
KES1 111736Z 15013KT 36/16 A3006 RMK A01 T03560160  RH  031%=      5-min Rain = 0
KES1 111737Z 14010KT 36/16 A3006 RMK A01 T03550158  RH  031%=      5-min Rain = 0
KES1 111738Z 15010KT 35/16 A3006 RMK A01 T03540161  RH  032%=      5-min Rain = 0
KES1 111739Z 14009KT 36/16 A3006 RMK A01 T03550158  RH  031%=      5-min Rain = 0
KES1 111740Z 15006KT 35/16 A3006 RMK A01 T03540158  RH  031%=      5-min Rain = 0
KES1 111741Z 15004KT 35/16 A3006 RMK A01 T03530159  RH  032%=      5-min Rain = 0
KES1 111742Z 23007G13KT 35/16 A3006 RMK A01 T03540157  RH  031%=      5-min Rain = 0
KES1 111743Z 21011KT 35/15 A3006 RMK A01 T03540149  RH  029%=      5-min Rain = 0
KES1 111744Z 21011KT 35/15 A3006 RMK A01 T03540145  RH  029%=      5-min Rain = 0
KES1 111745Z 22007KT 35/14 A3006 RMK A01 T03510144  RH  029%=      5-min Rain = 0
KES1 111746Z 21005KT 35/15 A3006 RMK A01 T03510147  RH  030%=      5-min Rain = 0
KES1 111747Z 21005KT 35/15 A3006 RMK A01 T03530153  RH  030%=      5-min Rain = 0
KES1 111748Z 18005KT 36/15 A3006 RMK A01 T03580154  RH  030%=      5-min Rain = 0
KES1 111749Z 17009G14KT 36/15 A3006 RMK A01 T03600153  RH  029%=      5-min Rain = 0
KES1 111750Z 17011KT 36/15 A3006 RMK A01 T03610151  RH  029%=      5-min Rain = 0
KES1 111751Z 16010KT 36/15 A3006 RMK A01 T03580149  RH  029%=      5-min Rain = 0
KES1 111752Z 17010KT 36/15 A3006 RMK A01 T03560149  RH  029%=      5-min Rain = 0
KES1 111753Z 18008KT 36/15 A3006 RMK A01 T03550149  RH  029%=      5-min Rain = 0
KES1 111754Z 17008KT 36/15 A3006 RMK A01 T03550148  RH  029%=      5-min Rain = 0
KES1 111755Z 15011KT 36/16 A3006 RMK A01 T03580155  RH  030%=      5-min Rain = 0
KES1 111756Z 16010KT 36/15 A3006 RMK A01 T03620152  RH  029%=      5-min Rain = 0
KES1 111757Z 16010KT 36/15 A3006 RMK A01 T03610148  RH  028%=      5-min Rain = 0
KES1 111758Z 13009KT 36/15 A3006 RMK A01 T03590151  RH  029%=      5-min Rain = 0
KES1 111759Z 14011KT 36/15 A3005 RMK A01 T03600150  RH  029%=      5-min Rain = 0
KES1 111800Z 16012KT 36/14 A3005 RMK A01 T03600143  RH  028%=      5-min Rain = 0
KES1 111801Z 17013KT 36/13 A3005 RMK A01 T03580134  RH  026%=      5-min Rain = 0
KES1 111802Z 15011KT 36/14 A3005 RMK A01 T03570136  RH  027%=      5-min Rain = 0
KES1 111803Z 15011KT 36/14 A3005 RMK A01 T03570140  RH  027%=      5-min Rain = 0
KES1 111804Z 16014KT 36/14 A3005 RMK A01 T03570143  RH  028%=      5-min Rain = 0
KES1 111805Z 16011KT 36/15 A3005 RMK A01 T03570145  RH  028%=      5-min Rain = 0
KES1 111806Z 15011KT 36/15 A3005 RMK A01 T03580146  RH  028%=      5-min Rain = 0
KES1 111807Z 15008KT 36/15 A3005 RMK A01 T03580146  RH  028%=      5-min Rain = 0
KES1 111808Z 15012KT 36/15 A3005 RMK A01 T03590149  RH  029%=      5-min Rain = 0
KES1 111809Z 14010KT 36/15 A3005 RMK A01 T03600148  RH  028%=      5-min Rain = 0
KES1 111810Z 12011KT 36/15 A3005 RMK A01 T03580149  RH  029%=      5-min Rain = 0
KES1 111811Z 13014KT 36/15 A3005 RMK A01 T03570146  RH  028%=      5-min Rain = 0
KES1 111812Z 14012KT 36/14 A3005 RMK A01 T03570142  RH  028%=      5-min Rain = 0
KES1 111813Z 14009KT 36/14 A3005 RMK A01 T03570142  RH  028%=      5-min Rain = 0
KES1 111814Z 15008KT 36/14 A3005 RMK A01 T03580144  RH  028%=      5-min Rain = 0
KES1 111815Z 16008KT 36/15 A3005 RMK A01 T03600149  RH  028%=      5-min Rain = 0
KES1 111816Z 18006G11KT 36/15 A3005 RMK A01 T03610149  RH  028%=      5-min Rain = 0
KES1 111817Z 20008KT 36/15 A3005 RMK A01 T03630147  RH  028%=      5-min Rain = 0
KES1 111818Z 18009G15KT 36/15 A3005 RMK A01 T03610146  RH  028%=      5-min Rain = 0
KES1 111819Z 16008KT 36/15 A3005 RMK A01 T03630151  RH  028%=      5-min Rain = 0
KES1 111820Z 16009KT 37/15 A3005 RMK A01 T03660152  RH  028%=      5-min Rain = 0
KES1 111821Z 16011KT 37/15 A3005 RMK A01 T03680153  RH  028%=      5-min Rain = 0
KES1 111822Z 16009KT 36/15 A3005 RMK A01 T03640152  RH  028%=      5-min Rain = 0
KES1 111823Z 18008KT 36/15 A3005 RMK A01 T03630152  RH  029%=      5-min Rain = 0
KES1 111824Z 19005KT 36/15 A3005 RMK A01 T03590147  RH  028%=      5-min Rain = 0
KES1 111825Z 18008KT 36/15 A3004 RMK A01 T03580152  RH  029%=      5-min Rain = 0
KES1 111826Z 16005KT 36/15 A3004 RMK A01 T03610150  RH  028%=      5-min Rain = 0
KES1 111827Z 18007KT 36/15 A3004 RMK A01 T03610151  RH  029%=      5-min Rain = 0
KES1 111828Z 19009KT 36/15 A3004 RMK A01 T03620153  RH  029%=      5-min Rain = 0
KES1 111829Z 20010KT 36/15 A3004 RMK A01 T03620153  RH  029%=      5-min Rain = 0
KES1 111830Z 21010G15KT 36/15 A3004 RMK A01 T03620154  RH  029%=      5-min Rain = 0
KES1 111831Z 22011KT 36/15 A3004 RMK A01 T03620154  RH  029%=      5-min Rain = 0
KES1 111832Z 22010KT 36/15 A3004 RMK A01 T03620154  RH  029%=      5-min Rain = 0
KES1 111833Z 22010G15KT 36/16 A3004 RMK A01 T03640155  RH  029%=      5-min Rain = 0
KES1 111834Z 20010KT 37/15 A3004 RMK A01 T03650150  RH  028%=      5-min Rain = 0
KES1 111835Z 19009KT 36/15 A3004 RMK A01 T03590149  RH  029%=      5-min Rain = 0
KES1 111836Z 18009KT 36/15 A3004 RMK A01 T03580153  RH  030%=      5-min Rain = 0
KES1 111837Z 19007KT 36/16 A3004 RMK A01 T03630156  RH  029%=      5-min Rain = 0
KES1 111838Z 17013KT 37/15 A3004 RMK A01 T03650154  RH  029%=      5-min Rain = 0
KES1 111839Z 16011KT 36/15 A3004 RMK A01 T03640153  RH  029%=      5-min Rain = 0
KES1 111840Z 16010KT 36/15 A3004 RMK A01 T03610154  RH  029%=      5-min Rain = 0
KES1 111841Z 14010KT 36/16 A3004 RMK A01 T03640156  RH  029%=      5-min Rain = 0
KES1 111842Z 14012KT 37/15 A3004 RMK A01 T03650154  RH  029%=      5-min Rain = 0
KES1 111843Z 14011KT 36/15 A3004 RMK A01 T03640153  RH  029%=      5-min Rain = 0
KES1 111844Z 14012KT 36/15 A3004 RMK A01 T03610154  RH  029%=      5-min Rain = 0
KES1 111845Z 14012KT 36/15 A3004 RMK A01 T03600154  RH  029%=      5-min Rain = 0
KES1 111846Z 15009KT 36/16 A3004 RMK A01 T03600155  RH  030%=      5-min Rain = 0
KES1 111847Z 15011KT 36/16 A3004 RMK A01 T03620155  RH  029%=      5-min Rain = 0
KES1 111848Z 14011KT 36/16 A3004 RMK A01 T03630155  RH  029%=      5-min Rain = 0
KES1 111849Z 12009KT 36/15 A3004 RMK A01 T03630152  RH  029%=      5-min Rain = 0
KES1 111850Z 15007KT 36/15 A3004 RMK A01 T03590154  RH  029%=      5-min Rain = 0
KES1 111851Z 16007KT 36/16 A3004 RMK A01 T03600159  RH  030%=      5-min Rain = 0
KES1 111852Z 17006KT 36/16 A3004 RMK A01 T03630158  RH  030%=      5-min Rain = 0
KES1 111853Z 15009G16KT 37/16 A3003 RMK A01 T03650158  RH  029%=      5-min Rain = 0
KES1 111854Z 16011G17KT 37/16 A3003 RMK A01 T03650157  RH  029%=      5-min Rain = 0
KES1 111855Z 19009KT 37/16 A3003 RMK A01 T03650155  RH  029%=      5-min Rain = 0
KES1 111856Z 19008KT 37/16 A3003 RMK A01 T03660155  RH  029%=      5-min Rain = 0
KES1 111857Z 20008G13KT 36/15 A3003 RMK A01 T03640152  RH  029%=      5-min Rain = 0
KES1 111858Z 19004G10KT 36/15 A3003 RMK A01 T03620153  RH  029%=      5-min Rain = 0
KES1 111859Z 18011KT 37/16 A3003 RMK A01 T03650155  RH  029%=      5-min Rain = 0
KES1 111900Z 18010KT 37/15 A3003 RMK A01 T03670153  RH  028%=      5-min Rain = 0
KES1 111901Z 19009G14KT 37/15 A3003 RMK A01 T03660153  RH  028%=      5-min Rain = 0
KES1 111902Z 19010KT 37/15 A3003 RMK A01 T03650152  RH  028%=      5-min Rain = 0
KES1 111903Z 17009G14KT 37/15 A3003 RMK A01 T03650152  RH  028%=      5-min Rain = 0
KES1 111904Z 16009G14KT 37/15 A3003 RMK A01 T03650154  RH  029%=      5-min Rain = 0
KES1 111905Z 17008G14KT 37/15 A3003 RMK A01 T03650154  RH  029%=      5-min Rain = 0
KES1 111906Z 16011KT 37/15 A3003 RMK A01 T03660153  RH  028%=      5-min Rain = 0
KES1 111907Z 17008KT 37/15 A3003 RMK A01 T03670152  RH  028%=      5-min Rain = 0
KES1 111908Z 15009KT 37/15 A3003 RMK A01 T03680154  RH  028%=      5-min Rain = 0
KES1 111909Z 15010KT 37/15 A3003 RMK A01 T03690154  RH  028%=      5-min Rain = 0
KES1 111910Z 16009KT 37/15 A3003 RMK A01 T03680153  RH  028%=      5-min Rain = 0
KES1 111911Z 17008KT 37/15 A3003 RMK A01 T03660154  RH  028%=      5-min Rain = 0
KES1 111912Z 16011G16KT 37/15 A3003 RMK A01 T03650153  RH  028%=      5-min Rain = 0
KES1 111913Z 15012KT 37/15 A3003 RMK A01 T03670147  RH  027%=      5-min Rain = 0
KES1 111914Z 16008KT 37/15 A3003 RMK A01 T03670146  RH  027%=      5-min Rain = 0
KES1 111915Z 13005KT 37/15 A3003 RMK A01 T03650145  RH  027%=      5-min Rain = 0
KES1 111916Z 17008G15KT 36/14 A3003 RMK A01 T03640143  RH  027%=      5-min Rain = 0
KES1 111917Z 18011KT 36/14 A3003 RMK A01 T03640142  RH  027%=      5-min Rain = 0
KES1 111918Z 18009KT 37/14 A3002 RMK A01 T03670141  RH  026%=      5-min Rain = 0
KES1 111919Z 20009KT 37/14 A3002 RMK A01 T03660143  RH  026%=      5-min Rain = 0
KES1 111920Z 20011KT 36/14 A3002 RMK A01 T03640140  RH  026%=      5-min Rain = 0
KES1 111921Z 21014KT 36/14 A3002 RMK A01 T03640143  RH  027%=      5-min Rain = 0
KES1 111922Z 22012KT 37/14 A3002 RMK A01 T03650140  RH  026%=      5-min Rain = 0
KES1 111923Z 18012KT 37/14 A3002 RMK A01 T03660143  RH  026%=      5-min Rain = 0
KES1 111924Z 17014KT 37/14 A3002 RMK A01 T03710144  RH  026%=      5-min Rain = 0
KES1 111925Z 15013KT 37/14 A3002 RMK A01 T03720144  RH  026%=      5-min Rain = 0
KES1 111926Z 17011KT 37/14 A3002 RMK A01 T03690143  RH  026%=      5-min Rain = 0
KES1 111927Z 15009KT 37/15 A3002 RMK A01 T03700148  RH  027%=      5-min Rain = 0
KES1 111928Z 17008G14KT 38/15 A3002 RMK A01 T03780152  RH  026%=      5-min Rain = 0
KES1 111929Z 18009KT 38/15 A3002 RMK A01 T03830148  RH  025%=      5-min Rain = 0
KES1 111930Z 18012G17KT 38/15 A3002 RMK A01 T03800148  RH  025%=      5-min Rain = 0
KES1 111931Z 19013G19KT 38/15 A3002 RMK A01 T03790150  RH  026%=      5-min Rain = 0
KES1 111932Z 21015KT 38/15 A3002 RMK A01 T03790146  RH  025%=      5-min Rain = 0
KES1 111933Z 21012KT 37/15 A3002 RMK A01 T03730145  RH  026%=      5-min Rain = 0
KES1 111934Z 21009KT 37/14 A3002 RMK A01 T03680143  RH  026%=      5-min Rain = 0
KES1 111935Z 22008KT 37/14 A3002 RMK A01 T03650144  RH  027%=      5-min Rain = 0
KES1 111936Z 20013G19KT 37/14 A3002 RMK A01 T03670144  RH  027%=      5-min Rain = 0
KES1 111937Z 20012KT 37/14 A3002 RMK A01 T03660142  RH  026%=      5-min Rain = 0
KES1 111938Z 21009KT 36/14 A3002 RMK A01 T03630143  RH  027%=      5-min Rain = 0
KES1 111939Z 21012KT 36/14 A3002 RMK A01 T03610142  RH  027%=      5-min Rain = 0
KES1 111940Z 21012KT 36/14 A3002 RMK A01 T03580143  RH  028%=      5-min Rain = 0
KES1 111941Z 20011KT 36/14 A3002 RMK A01 T03590143  RH  028%=      5-min Rain = 0
KES1 111942Z 18008KT 36/15 A3002 RMK A01 T03610148  RH  028%=      5-min Rain = 0
KES1 111943Z 16013KT 36/15 A3002 RMK A01 T03630149  RH  028%=      5-min Rain = 0
KES1 111944Z 15012KT 36/15 A3002 RMK A01 T03630146  RH  027%=      5-min Rain = 0
KES1 111945Z 15011KT 36/15 A3002 RMK A01 T03630146  RH  028%=      5-min Rain = 0
KES1 111946Z 15011KT 36/15 A3002 RMK A01 T03640149  RH  028%=      5-min Rain = 0
KES1 111947Z 17013KT 37/15 A3002 RMK A01 T03700152  RH  027%=      5-min Rain = 0
KES1 111948Z 16014KT 37/15 A3002 RMK A01 T03730149  RH  027%=      5-min Rain = 0
KES1 111949Z 15011KT 37/15 A3002 RMK A01 T03710148  RH  027%=      5-min Rain = 0
KES1 111950Z 14011KT 37/15 A3002 RMK A01 T03710150  RH  027%=      5-min Rain = 0
KES1 111951Z 14011KT 37/15 A3002 RMK A01 T03700148  RH  027%=      5-min Rain = 0
KES1 111952Z 14009KT 37/15 A3001 RMK A01 T03690148  RH  027%=      5-min Rain = 0
KES1 111953Z 15009KT 37/15 A3001 RMK A01 T03690150  RH  027%=      5-min Rain = 0
KES1 111954Z 14007KT 37/15 A3001 RMK A01 T03710150  RH  027%=      5-min Rain = 0
KES1 111955Z 15004KT 37/15 A3001 RMK A01 T03730149  RH  027%=      5-min Rain = 0
KES1 111956Z 16007G14KT 37/15 A3001 RMK A01 T03740149  RH  026%=      5-min Rain = 0
KES1 111957Z 20010G15KT 38/15 A3001 RMK A01 T03750148  RH  026%=      5-min Rain = 0
KES1 111958Z 18010KT 37/15 A3001 RMK A01 T03740148  RH  026%=      5-min Rain = 0
KES1 111959Z 18008KT 37/15 A3001 RMK A01 T03740147  RH  026%=      5-min Rain = 0
KES1 112000Z 19007KT 38/15 A3001 RMK A01 T03770147  RH  026%=      5-min Rain = 0
KES1 112001Z 19008KT 38/15 A3001 RMK A01 T03780149  RH  026%=      5-min Rain = 0
KES1 112002Z 19010KT 38/15 A3001 RMK A01 T03780146  RH  025%=      5-min Rain = 0
KES1 112003Z 23006KT 37/15 A3001 RMK A01 T03740145  RH  026%=      5-min Rain = 0
KES1 112004Z 21005KT 37/15 A3001 RMK A01 T03740148  RH  026%=      5-min Rain = 0
KES1 112005Z 18005KT 38/15 A3001 RMK A01 T03750145  RH  026%=      5-min Rain = 0
KES1 112006Z 16008KT 38/15 A3001 RMK A01 T03770149  RH  026%=      5-min Rain = 0
KES1 112007Z 17012G17KT 38/15 A3001 RMK A01 T03790147  RH  025%=      5-min Rain = 0
KES1 112008Z 19013KT 38/15 A3001 RMK A01 T03780146  RH  025%=      5-min Rain = 0
KES1 112009Z 18012KT 38/15 A3001 RMK A01 T03760145  RH  025%=      5-min Rain = 0
KES1 112010Z 18012KT 37/14 A3001 RMK A01 T03740142  RH  025%=      5-min Rain = 0
KES1 112011Z 17007KT 37/14 A3001 RMK A01 T03690141  RH  026%=      5-min Rain = 0
KES1 112012Z 19011G16KT 37/14 A3001 RMK A01 T03670142  RH  026%=      5-min Rain = 0
KES1 112013Z 19010KT 37/14 A30 RMK A01 T03690140  RH  026%=      5-min Rain = 0
KES1 112014Z 16007KT 37/14 A30 RMK A01 T03700144  RH  026%=      5-min Rain = 0
KES1 112015Z 19010G17KT 38/14 A30 RMK A01 T03750144  RH  025%=      5-min Rain = 0
KES1 112016Z 17014KT 38/14 A30 RMK A01 T03770144  RH  025%=      5-min Rain = 0
KES1 112017Z 18012KT 38/14 A30 RMK A01 T03750143  RH  025%=      5-min Rain = 0
KES1 112018Z 18009KT 38/14 A30 RMK A01 T03750143  RH  025%=      5-min Rain = 0
KES1 112019Z 19007KT 37/14 A30 RMK A01 T03740144  RH  026%=      5-min Rain = 0
KES1 112020Z 17010G16KT 37/14 A30 RMK A01 T03710143  RH  026%=      5-min Rain = 0
KES1 112021Z 17011KT 37/14 A30 RMK A01 T03690144  RH  026%=      5-min Rain = 0
KES1 112022Z 18009KT 37/15 A30 RMK A01 T03680146  RH  027%=      5-min Rain = 0
KES1 112023Z 20014KT 37/15 A30 RMK A01 T03700145  RH  026%=      5-min Rain = 0
KES1 112024Z 20011KT 37/14 A30 RMK A01 T03670144  RH  026%=      5-min Rain = 0
KES1 112025Z 20007KT 37/15 A30 RMK A01 T03690148  RH  027%=      5-min Rain = 0
KES1 112026Z 19010KT 37/15 A30 RMK A01 T03740145  RH  026%=      5-min Rain = 0
KES1 112027Z 20007KT 37/14 A30 RMK A01 T03720143  RH  026%=      5-min Rain = 0
KES1 112028Z 19006KT 37/14 A30 RMK A01 T03680142  RH  026%=      5-min Rain = 0
KES1 112029Z 15009KT 37/15 A30 RMK A01 T03670147  RH  027%=      5-min Rain = 0
KES1 112030Z 14011KT 37/14 A30 RMK A01 T03680144  RH  026%=      5-min Rain = 0
KES1 112031Z 18010G15KT 37/15 A30 RMK A01 T03700145  RH  026%=      5-min Rain = 0
KES1 112032Z 19009KT 37/15 A30 RMK A01 T03730145  RH  026%=      5-min Rain = 0
KES1 112033Z 16012KT 38/15 A30 RMK A01 T03770147  RH  026%=      5-min Rain = 0
KES1 112034Z 16010KT 38/15 A30 RMK A01 T03760145  RH  025%=      5-min Rain = 0
KES1 112035Z 18010G16KT 37/14 A30 RMK A01 T03730144  RH  026%=      5-min Rain = 0
KES1 112036Z 20013KT 37/15 A30 RMK A01 T03720145  RH  026%=      5-min Rain = 0
KES1 112037Z 21014KT 37/14 A30 RMK A01 T03720144  RH  026%=      5-min Rain = 0
KES1 112038Z 17011KT 37/15 A30 RMK A01 T03740147  RH  026%=      5-min Rain = 0
KES1 112039Z 16011KT 38/15 A30 RMK A01 T03760147  RH  026%=      5-min Rain = 0
KES1 112040Z 15009KT 38/15 A30 RMK A01 T03750150  RH  026%=      5-min Rain = 0
KES1 112041Z 15011KT 38/15 A30 RMK A01 T03760151  RH  026%=      5-min Rain = 0
KES1 112042Z 15012KT 38/15 A30 RMK A01 T03780149  RH  026%=      5-min Rain = 0
KES1 112043Z 16010KT 37/15 A30 RMK A01 T03740146  RH  026%=      5-min Rain = 0
KES1 112044Z 17010KT 37/15 A30 RMK A01 T03680145  RH  027%=      5-min Rain = 0
KES1 112045Z 15008KT 37/15 A30 RMK A01 T03650145  RH  027%=      5-min Rain = 0
KES1 112046Z 14008KT 37/15 A2999 RMK A01 T03650150  RH  028%=      5-min Rain = 0
KES1 112047Z 15009KT 37/15 A2999 RMK A01 T03680148  RH  027%=      5-min Rain = 0
KES1 112048Z 14009KT 37/15 A2999 RMK A01 T03720150  RH  027%=      5-min Rain = 0
KES1 112049Z 16010KT 37/15 A2999 RMK A01 T03730148  RH  026%=      5-min Rain = 0
KES1 112050Z 18008KT 37/15 A2999 RMK A01 T03720151  RH  027%=      5-min Rain = 0
KES1 112051Z 17009KT 38/15 A2999 RMK A01 T03760150  RH  026%=      5-min Rain = 0
KES1 112052Z 17008KT 38/15 A2999 RMK A01 T03760148  RH  026%=      5-min Rain = 0
KES1 112053Z 18007KT 38/15 A2999 RMK A01 T03770150  RH  026%=      5-min Rain = 0
KES1 112054Z 18008KT 38/15 A2999 RMK A01 T03800151  RH  026%=      5-min Rain = 0
KES1 112055Z 18009KT 38/15 A2999 RMK A01 T03810151  RH  026%=      5-min Rain = 0
KES1 112056Z 18007KT 38/15 A2999 RMK A01 T03800151  RH  026%=      5-min Rain = 0
KES1 112057Z 20007KT 38/15 A2999 RMK A01 T03800151  RH  026%=      5-min Rain = 0
KES1 112058Z 20009KT 38/15 A2999 RMK A01 T03790148  RH  026%=      5-min Rain = 0
KES1 112059Z 20010KT 38/15 A2999 RMK A01 T03760146  RH  026%=      5-min Rain = 0
KES1 112100Z 18012KT 37/15 A2999 RMK A01 T03740148  RH  026%=      5-min Rain = 0
KES1 112101Z 19014KT 37/15 A2999 RMK A01 T03740147  RH  026%=      5-min Rain = 0
KES1 112102Z 18010KT 37/15 A2999 RMK A01 T03730148  RH  026%=      5-min Rain = 0
KES1 112103Z 18009KT 37/15 A2999 RMK A01 T03730149  RH  027%=      5-min Rain = 0
KES1 112104Z 20011G16KT 37/15 A2999 RMK A01 T03730150  RH  027%=      5-min Rain = 0
KES1 112105Z 20013KT 37/15 A2998 RMK A01 T03720149  RH  027%=      5-min Rain = 0
KES1 112106Z 20011KT 37/15 A2998 RMK A01 T03690149  RH  027%=      5-min Rain = 0
KES1 112107Z 20011KT 37/15 A2998 RMK A01 T03710150  RH  027%=      5-min Rain = 0
KES1 112108Z 21009KT 37/15 A2998 RMK A01 T03730148  RH  026%=      5-min Rain = 0
KES1 112109Z 21007KT 37/15 A2998 RMK A01 T03730148  RH  026%=      5-min Rain = 0
KES1 112110Z 21009KT 37/15 A2998 RMK A01 T03720148  RH  027%=      5-min Rain = 0
KES1 112111Z 17010G15KT 37/15 A2998 RMK A01 T03700150  RH  027%=      5-min Rain = 0
KES1 112112Z 16012KT 37/15 A2998 RMK A01 T03720151  RH  027%=      5-min Rain = 0
KES1 112113Z 16013KT 37/15 A2998 RMK A01 T03720150  RH  027%=      5-min Rain = 0
KES1 112114Z 17013G18KT 37/15 A2998 RMK A01 T03710152  RH  027%=      5-min Rain = 0
KES1 112115Z 17011KT 37/15 A2998 RMK A01 T03710150  RH  027%=      5-min Rain = 0
KES1 112116Z 16013G20KT 37/15 A2998 RMK A01 T03680152  RH  028%=      5-min Rain = 0
KES1 112117Z 17011KT 37/15 A2998 RMK A01 T03700153  RH  028%=      5-min Rain = 0
KES1 112118Z 16011KT 37/15 A2998 RMK A01 T03720152  RH  027%=      5-min Rain = 0
KES1 112119Z 18007KT 37/15 A2998 RMK A01 T03710152  RH  027%=      5-min Rain = 0
KES1 112120Z 20010KT 37/15 A2998 RMK A01 T03730154  RH  027%=      5-min Rain = 0
KES1 112121Z 19013KT 37/15 A2998 RMK A01 T03740153  RH  027%=      5-min Rain = 0
KES1 112122Z 17012G17KT 37/15 A2998 RMK A01 T03740154  RH  027%=      5-min Rain = 0
KES1 112123Z 16014KT 37/15 A2998 RMK A01 T03730153  RH  027%=      5-min Rain = 0
KES1 112124Z 15011KT 37/15 A2998 RMK A01 T03690152  RH  028%=      5-min Rain = 0
KES1 112125Z 15010KT 37/15 A2998 RMK A01 T03680154  RH  028%=      5-min Rain = 0
KES1 112126Z 15011KT 37/15 A2998 RMK A01 T03680154  RH  028%=      5-min Rain = 0
KES1 112127Z 18011G16KT 37/15 A2997 RMK A01 T03680154  RH  028%=      5-min Rain = 0
KES1 112128Z 19013KT 37/15 A2998 RMK A01 T03700152  RH  027%=      5-min Rain = 0
KES1 112129Z 17010KT 37/15 A2997 RMK A01 T03700150  RH  027%=      5-min Rain = 0
KES1 112130Z 19012KT 37/15 A2998 RMK A01 T03700149  RH  027%=      5-min Rain = 0
KES1 112131Z 19010KT 37/15 A2998 RMK A01 T03700148  RH  027%=      5-min Rain = 0
KES1 112132Z 19010KT 37/15 A2998 RMK A01 T03700147  RH  026%=      5-min Rain = 0
KES1 112133Z 19009KT 37/15 A2997 RMK A01 T03690147  RH  027%=      5-min Rain = 0
KES1 112134Z 17008KT 37/15 A2997 RMK A01 T03680150  RH  027%=      5-min Rain = 0
KES1 112135Z 19008KT 37/15 A2997 RMK A01 T03680150  RH  027%=      5-min Rain = 0
KES1 112136Z 19011KT 37/15 A2997 RMK A01 T03660149  RH  028%=      5-min Rain = 0
KES1 112137Z 18009KT 37/15 A2997 RMK A01 T03660151  RH  028%=      5-min Rain = 0
KES1 112138Z 18008KT 37/15 A2997 RMK A01 T03660151  RH  028%=      5-min Rain = 0
KES1 112139Z 17009KT 37/15 A2997 RMK A01 T03690152  RH  028%=      5-min Rain = 0
KES1 112140Z 18008KT 37/15 A2997 RMK A01 T03710151  RH  027%=      5-min Rain = 0
KES1 112141Z 17007KT 37/15 A2997 RMK A01 T03720151  RH  027%=      5-min Rain = 0
KES1 112142Z 16009G14KT 37/15 A2997 RMK A01 T03740154  RH  027%=      5-min Rain = 0
KES1 112143Z 16006KT 37/16 A2997 RMK A01 T03740155  RH  027%=      5-min Rain = 0
KES1 112144Z 14010G15KT 38/16 A2997 RMK A01 T03750157  RH  028%=      5-min Rain = 0
KES1 112145Z 15009KT 37/15 A2997 RMK A01 T03730154  RH  027%=      5-min Rain = 0
KES1 112146Z 14009KT 37/15 A2997 RMK A01 T03680152  RH  028%=      5-min Rain = 0
KES1 112147Z 13012KT 36/15 A2997 RMK A01 T03630149  RH  028%=      5-min Rain = 0
KES1 112148Z 15012KT 36/15 A2997 RMK A01 T03620148  RH  028%=      5-min Rain = 0
KES1 112149Z 16010KT 36/15 A2996 RMK A01 T03620148  RH  028%=      5-min Rain = 0
KES1 112150Z 15009KT 37/15 A2996 RMK A01 T03650150  RH  028%=      5-min Rain = 0
KES1 112151Z 14009G15KT 37/15 A2996 RMK A01 T03680152  RH  028%=      5-min Rain = 0
KES1 112152Z 15011KT 37/15 A2996 RMK A01 T03680151  RH  028%=      5-min Rain = 0
KES1 112153Z 18014KT 37/15 A2996 RMK A01 T03660150  RH  028%=      5-min Rain = 0
KES1 112154Z 17011KT 37/15 A2996 RMK A01 T03660150  RH  028%=      5-min Rain = 0
KES1 112155Z 19008KT 37/15 A2996 RMK A01 T03700152  RH  027%=      5-min Rain = 0
KES1 112156Z 19010KT 37/15 A2996 RMK A01 T03740150  RH  027%=      5-min Rain = 0
KES1 112157Z 18011KT 38/15 A2996 RMK A01 T03750149  RH  026%=      5-min Rain = 0
KES1 112158Z 18010KT 37/15 A2996 RMK A01 T03740149  RH  026%=      5-min Rain = 0
KES1 112159Z 18010KT 37/15 A2996 RMK A01 T03740149  RH  026%=      5-min Rain = 0
KES1 112200Z 17008KT 37/15 A2996 RMK A01 T03730149  RH  027%=      5-min Rain = 0
KES1 112201Z 18010KT 37/15 A2996 RMK A01 T03730151  RH  027%=      5-min Rain = 0
KES1 112202Z 17010KT 37/15 A2996 RMK A01 T03740149  RH  026%=      5-min Rain = 0
KES1 112203Z 17007KT 37/15 A2996 RMK A01 T03720151  RH  027%=      5-min Rain = 0
KES1 112204Z 15009KT 38/15 A2996 RMK A01 T03750154  RH  027%=      5-min Rain = 0
KES1 112205Z 14008KT 38/15 A2996 RMK A01 T03760151  RH  026%=      5-min Rain = 0
KES1 112206Z 15007KT 37/15 A2996 RMK A01 T03730150  RH  027%=      5-min Rain = 0
KES1 112207Z 18007KT 37/15 A2996 RMK A01 T03720151  RH  027%=      5-min Rain = 0
KES1 112208Z 18010KT 37/15 A2996 RMK A01 T03730153  RH  027%=      5-min Rain = 0
KES1 112209Z 16013KT 38/15 A2996 RMK A01 T03770152  RH  026%=      5-min Rain = 0
KES1 112210Z 15011G17KT 38/15 A2996 RMK A01 T03750151  RH  027%=      5-min Rain = 0
KES1 112211Z 15012KT 37/15 A2996 RMK A01 T03740152  RH  027%=      5-min Rain = 0
KES1 112212Z 15010KT 37/15 A2996 RMK A01 T03740151  RH  027%=      5-min Rain = 0
KES1 112213Z 15012KT 37/15 A2995 RMK A01 T03740152  RH  027%=      5-min Rain = 0
KES1 112214Z 17011G16KT 37/15 A2996 RMK A01 T03730154  RH  027%=      5-min Rain = 0
KES1 112215Z 20014G19KT 38/15 A2996 RMK A01 T03750150  RH  026%=      5-min Rain = 0
KES1 112216Z 20014KT 37/15 A2996 RMK A01 T03730148  RH  026%=      5-min Rain = 0
KES1 112217Z 19012KT 37/15 A2996 RMK A01 T03700148  RH  027%=      5-min Rain = 0
KES1 112218Z 20011KT 37/15 A2996 RMK A01 T03690148  RH  027%=      5-min Rain = 0
KES1 112219Z 19010KT 37/15 A2996 RMK A01 T03690148  RH  027%=      5-min Rain = 0
KES1 112220Z 19010KT 37/15 A2995 RMK A01 T03690149  RH  027%=      5-min Rain = 0
KES1 112221Z 18012KT 37/15 A2995 RMK A01 T03700150  RH  027%=      5-min Rain = 0
KES1 112222Z 19012KT 37/15 A2995 RMK A01 T03710147  RH  026%=      5-min Rain = 0
KES1 112223Z 20010KT 37/15 A2995 RMK A01 T03700147  RH  027%=      5-min Rain = 0
KES1 112224Z 20009KT 37/15 A2995 RMK A01 T03700148  RH  027%=      5-min Rain = 0
KES1 112225Z 20010KT 37/15 A2995 RMK A01 T03700150  RH  027%=      5-min Rain = 0
KES1 112226Z 16011KT 37/15 A2995 RMK A01 T03710149  RH  027%=      5-min Rain = 0
KES1 112227Z 16012KT 37/15 A2995 RMK A01 T03700147  RH  027%=      5-min Rain = 0
KES1 112228Z 17008KT 37/15 A2995 RMK A01 T03670145  RH  027%=      5-min Rain = 0
KES1 112229Z 16006KT 36/14 A2995 RMK A01 T03640144  RH  027%=      5-min Rain = 0
KES1 112230Z 17006KT 36/15 A2995 RMK A01 T03630146  RH  027%=      5-min Rain = 0
KES1 112231Z 18010KT 37/15 A2995 RMK A01 T03650146  RH  027%=      5-min Rain = 0
KES1 112232Z 18011KT 37/15 A2995 RMK A01 T03670145  RH  027%=      5-min Rain = 0
KES1 112233Z 19009KT 37/15 A2995 RMK A01 T03670147  RH  027%=      5-min Rain = 0
KES1 112234Z 18010KT 37/15 A2995 RMK A01 T03670147  RH  027%=      5-min Rain = 0
KES1 112235Z 18010KT 37/15 A2995 RMK A01 T03680146  RH  027%=      5-min Rain = 0
KES1 112236Z 17012KT 37/15 A2995 RMK A01 T03680147  RH  027%=      5-min Rain = 0
KES1 112237Z 17008KT 37/15 A2995 RMK A01 T03690148  RH  027%=      5-min Rain = 0
KES1 112238Z 18008KT 37/15 A2995 RMK A01 T03670147  RH  027%=      5-min Rain = 0
KES1 112239Z 16010KT 37/15 A2995 RMK A01 T03660149  RH  027%=      5-min Rain = 0
KES1 112240Z 15011KT 36/15 A2995 RMK A01 T03640146  RH  027%=      5-min Rain = 0
KES1 112241Z 14011KT 36/15 A2995 RMK A01 T03610145  RH  028%=      5-min Rain = 0
KES1 112242Z 16007KT 36/15 A2995 RMK A01 T03600145  RH  028%=      5-min Rain = 0
KES1 112243Z 19008KT 36/15 A2995 RMK A01 T03630148  RH  028%=      5-min Rain = 0
KES1 112244Z 20007KT 37/15 A2995 RMK A01 T03680148  RH  027%=      5-min Rain = 0
KES1 112245Z 19009KT 37/15 A2995 RMK A01 T03710148  RH  027%=      5-min Rain = 0
KES1 112246Z 17009KT 37/15 A2995 RMK A01 T03720148  RH  027%=      5-min Rain = 0
KES1 112247Z 16010KT 37/15 A2995 RMK A01 T03730148  RH  026%=      5-min Rain = 0
KES1 112248Z 18009KT 37/15 A2995 RMK A01 T03720146  RH  026%=      5-min Rain = 0
KES1 112249Z 18007KT 37/15 A2995 RMK A01 T03720147  RH  026%=      5-min Rain = 0
KES1 112250Z 18008KT 37/15 A2995 RMK A01 T03740146  RH  026%=      5-min Rain = 0
KES1 112251Z 19008G13KT 37/15 A2995 RMK A01 T03740146  RH  026%=      5-min Rain = 0
KES1 112252Z 19010KT 38/15 A2995 RMK A01 T03750149  RH  026%=      5-min Rain = 0
KES1 112253Z 19011KT 38/15 A2995 RMK A01 T03750148  RH  026%=      5-min Rain = 0
KES1 112254Z 19010KT 37/15 A2995 RMK A01 T03730145  RH  026%=      5-min Rain = 0
KES1 112255Z 16010KT 37/15 A2995 RMK A01 T03710147  RH  026%=      5-min Rain = 0
KES1 112256Z 14010KT 37/15 A2995 RMK A01 T03710145  RH  026%=      5-min Rain = 0
KES1 112257Z 15009KT 37/14 A2995 RMK A01 T03710143  RH  026%=      5-min Rain = 0
KES1 112258Z 18011KT 37/14 A2995 RMK A01 T03700144  RH  026%=      5-min Rain = 0
KES1 112259Z 17010KT 37/14 A2995 RMK A01 T03700143  RH  026%=      5-min Rain = 0
KES1 112300Z 18009KT 37/14 A2995 RMK A01 T03710143  RH  026%=      5-min Rain = 0
KES1 112301Z 16010KT 37/15 A2995 RMK A01 T03710145  RH  026%=      5-min Rain = 0
KES1 112302Z 16013KT 37/15 A2995 RMK A01 T03720145  RH  026%=      5-min Rain = 0
KES1 112303Z 17010KT 37/15 A2995 RMK A01 T03700145  RH  026%=      5-min Rain = 0
KES1 112304Z 17014KT 37/15 A2995 RMK A01 T03680147  RH  027%=      5-min Rain = 0
KES1 112305Z 16010G16KT 37/15 A2995 RMK A01 T03670148  RH  027%=      5-min Rain = 0
KES1 112306Z 15011KT 37/15 A2995 RMK A01 T03670151  RH  028%=      5-min Rain = 0
KES1 112307Z 14012KT 37/15 A2995 RMK A01 T03660153  RH  028%=      5-min Rain = 0
KES1 112308Z 15013KT 36/15 A2995 RMK A01 T03630151  RH  028%=      5-min Rain = 0
KES1 112309Z 14014KT 36/15 A2995 RMK A01 T03600150  RH  029%=      5-min Rain = 0
KES1 112310Z 15012KT 36/15 A2995 RMK A01 T03580151  RH  029%=      5-min Rain = 0
KES1 112311Z 14010KT 36/15 A2995 RMK A01 T03570152  RH  030%=      5-min Rain = 0
KES1 112312Z 15014KT 36/15 A2995 RMK A01 T03570153  RH  030%=      5-min Rain = 0
KES1 112313Z 15013KT 36/15 A2995 RMK A01 T03560151  RH  030%=      5-min Rain = 0
KES1 112314Z 14012KT 36/15 A2995 RMK A01 T03550152  RH  030%=      5-min Rain = 0
KES1 112315Z 14014KT 35/15 A2995 RMK A01 T03540152  RH  030%=      5-min Rain = 0
KES1 112316Z 13014KT 35/15 A2995 RMK A01 T03540151  RH  030%=      5-min Rain = 0
KES1 112317Z 14011KT 35/15 A2995 RMK A01 T03530151  RH  030%=      5-min Rain = 0
KES1 112318Z 14013KT 35/15 A2995 RMK A01 T03530152  RH  030%=      5-min Rain = 0
KES1 112319Z 14013KT 35/15 A2995 RMK A01 T03530151  RH  030%=      5-min Rain = 0
KES1 112320Z 14012KT 35/15 A2995 RMK A01 T03520151  RH  030%=      5-min Rain = 0
KES1 112321Z 15010KT 35/15 A2994 RMK A01 T03520152  RH  030%=      5-min Rain = 0
KES1 112322Z 15011KT 35/15 A2994 RMK A01 T03520151  RH  030%=      5-min Rain = 0
KES1 112323Z 13011KT 35/15 A2994 RMK A01 T03520152  RH  030%=      5-min Rain = 0
KES1 112324Z 13011KT 35/15 A2994 RMK A01 T03530153  RH  030%=      5-min Rain = 0
KES1 112325Z 14010KT 35/15 A2994 RMK A01 T03530153  RH  030%=      5-min Rain = 0
KES1 112326Z 15010KT 35/15 A2994 RMK A01 T03520152  RH  030%=      5-min Rain = 0
KES1 112327Z 15009KT 35/15 A2994 RMK A01 T03520151  RH  030%=      5-min Rain = 0
KES1 112328Z 15008KT 35/15 A2994 RMK A01 T03520151  RH  030%=      5-min Rain = 0
KES1 112329Z 15009KT 35/15 A2994 RMK A01 T03540153  RH  030%=      5-min Rain = 0
KES1 112330Z 15013KT 36/15 A2994 RMK A01 T03560151  RH  030%=      5-min Rain = 0
KES1 112331Z 15014KT 36/15 A2994 RMK A01 T03560149  RH  029%=      5-min Rain = 0
KES1 112332Z 16014KT 36/15 A2995 RMK A01 T03550150  RH  029%=      5-min Rain = 0
KES1 112333Z 16013KT 36/15 A2995 RMK A01 T03550148  RH  029%=      5-min Rain = 0
KES1 112334Z 16012KT 36/15 A2995 RMK A01 T03550149  RH  029%=      5-min Rain = 0
KES1 112335Z 16011KT 35/15 A2995 RMK A01 T03540148  RH  029%=      5-min Rain = 0
KES1 112336Z 17013KT 35/15 A2995 RMK A01 T03540147  RH  029%=      5-min Rain = 0
KES1 112337Z 16012G17KT 36/15 A2995 RMK A01 T03550146  RH  029%=      5-min Rain = 0
KES1 112338Z 16012KT 36/15 A2995 RMK A01 T03550148  RH  029%=      5-min Rain = 0
KES1 112339Z 15009KT 36/15 A2995 RMK A01 T03550148  RH  029%=      5-min Rain = 0
KES1 112340Z 16011KT 36/15 A2995 RMK A01 T03550149  RH  029%=      5-min Rain = 0
KES1 112341Z 17013KT 36/15 A2995 RMK A01 T03550147  RH  029%=      5-min Rain = 0
KES1 112342Z 17012KT 35/15 A2995 RMK A01 T03540147  RH  029%=      5-min Rain = 0
KES1 112343Z 16010KT 35/15 A2995 RMK A01 T03540147  RH  029%=      5-min Rain = 0
KES1 112344Z 16009KT 35/15 A2995 RMK A01 T03540148  RH  029%=      5-min Rain = 0
KES1 112345Z 16011KT 35/15 A2995 RMK A01 T03530148  RH  029%=      5-min Rain = 0
KES1 112346Z 17012KT 35/15 A2995 RMK A01 T03530148  RH  029%=      5-min Rain = 0
KES1 112347Z 15009KT 35/15 A2995 RMK A01 T03520148  RH  029%=      5-min Rain = 0
KES1 112348Z 16009KT 35/15 A2995 RMK A01 T03520149  RH  030%=      5-min Rain = 0
KES1 112349Z 17010KT 35/15 A2995 RMK A01 T03510150  RH  030%=      5-min Rain = 0
KES1 112350Z 16011KT 35/15 A2995 RMK A01 T03520149  RH  030%=      5-min Rain = 0
KES1 112351Z 16010KT 35/15 A2995 RMK A01 T03520148  RH  030%=      5-min Rain = 0
KES1 112352Z 17012KT 35/15 A2995 RMK A01 T03510147  RH  030%=      5-min Rain = 0
KES1 112353Z 17011KT 35/15 A2995 RMK A01 T03510146  RH  029%=      5-min Rain = 0
KES1 112354Z 16011KT 35/15 A2995 RMK A01 T03510147  RH  030%=      5-min Rain = 0
KES1 112355Z 16011KT 35/15 A2995 RMK A01 T03510147  RH  030%=      5-min Rain = 0
KES1 112356Z 17006KT 35/15 A2995 RMK A01 T03510147  RH  030%=      5-min Rain = 0
KES1 112357Z 16006KT 35/15 A2995 RMK A01 T03510148  RH  030%=      5-min Rain = 0
KES1 112358Z 16008KT 35/15 A2995 RMK A01 T03500148  RH  030%=      5-min Rain = 0
KES1 112359Z 15010KT 35/15 A2995 RMK A01 T03510148  RH  030%=      5-min Rain = 0
KES1 120000Z 14010KT 35/15 A2995 RMK A01 T03500148  RH  030%=      5-min Rain = 0
KES1 120001Z 16008KT 35/15 A2995 RMK A01 T03500148  RH  030%=      5-min Rain = 0
KES1 120002Z 16008KT 35/15 A2995 RMK A01 T03500148  RH  030%=      5-min Rain = 0
KES1 120003Z 17007G12KT 35/15 A2995 RMK A01 T03500148  RH  030%=      5-min Rain = 0
KES1 120004Z 16011KT 35/15 A2995 RMK A01 T03500147  RH  030%=      5-min Rain = 0
KES1 120005Z 17010KT 35/15 A2995 RMK A01 T03500147  RH  030%=      5-min Rain = 0
KES1 120006Z 17010KT 35/15 A2995 RMK A01 T03500147  RH  030%=      5-min Rain = 0
KES1 120007Z 16010KT 35/15 A2995 RMK A01 T03500147  RH  030%=      5-min Rain = 0
KES1 120008Z 16009KT 35/15 A2995 RMK A01 T03500148  RH  030%=      5-min Rain = 0
KES1 120009Z 16008G13KT 35/15 A2995 RMK A01 T03490148  RH  030%=      5-min Rain = 0
KES1 120010Z 15010KT 35/15 A2995 RMK A01 T03490147  RH  030%=      5-min Rain = 0
KES1 120011Z 16006KT 35/15 A2995 RMK A01 T03490149  RH  030%=      5-min Rain = 0
KES1 120012Z 15007KT 35/15 A2995 RMK A01 T03490150  RH  030%=      5-min Rain = 0
KES1 120013Z 15009KT 35/15 A2995 RMK A01 T03490148  RH  030%=      5-min Rain = 0
KES1 120014Z 16008KT 35/15 A2995 RMK A01 T03490148  RH  030%=      5-min Rain = 0
KES1 120015Z 17007KT 35/15 A2995 RMK A01 T03480148  RH  030%=      5-min Rain = 0
KES1 120016Z 16009G14KT 35/15 A2995 RMK A01 T03480149  RH  030%=      5-min Rain = 0
KES1 120017Z 17011KT 35/15 A2995 RMK A01 T03480148  RH  030%=      5-min Rain = 0
KES1 120018Z 17010KT 35/15 A2995 RMK A01 T03480146  RH  030%=      5-min Rain = 0
KES1 120019Z 17009KT 35/15 A2995 RMK A01 T03480146  RH  030%=      5-min Rain = 0
KES1 120020Z 17007KT 35/15 A2995 RMK A01 T03470146  RH  030%=      5-min Rain = 0
KES1 120021Z 16008KT 35/15 A2995 RMK A01 T03470147  RH  030%=      5-min Rain = 0
KES1 120022Z 16007KT 35/15 A2995 RMK A01 T03470148  RH  030%=      5-min Rain = 0
KES1 120023Z 15008KT 35/15 A2995 RMK A01 T03470149  RH  031%=      5-min Rain = 0
KES1 120024Z 15006KT 35/15 A2995 RMK A01 T03470150  RH  031%=      5-min Rain = 0
KES1 120025Z 16008KT 35/15 A2995 RMK A01 T03460150  RH  031%=      5-min Rain = 0
KES1 120026Z 16007KT 35/15 A2995 RMK A01 T03460150  RH  031%=      5-min Rain = 0
KES1 120027Z 15007KT 35/15 A2995 RMK A01 T03460150  RH  031%=      5-min Rain = 0
KES1 120028Z 15010KT 35/15 A2995 RMK A01 T03450150  RH  031%=      5-min Rain = 0
KES1 120029Z 16008KT 35/15 A2995 RMK A01 T03450148  RH  031%=      5-min Rain = 0
KES1 120030Z 16011KT 35/15 A2995 RMK A01 T03450149  RH  031%=      5-min Rain = 0
KES1 120031Z 16010KT 35/15 A2995 RMK A01 T03450147  RH  031%=      5-min Rain = 0
KES1 120032Z 16009KT 35/15 A2995 RMK A01 T03460147  RH  030%=      5-min Rain = 0
KES1 120033Z 16009KT 35/15 A2995 RMK A01 T03460146  RH  030%=      5-min Rain = 0
KES1 120034Z 15009KT 35/15 A2995 RMK A01 T03460147  RH  030%=      5-min Rain = 0
KES1 120035Z 16009KT 35/15 A2995 RMK A01 T03460146  RH  030%=      5-min Rain = 0
KES1 120036Z 15009KT 35/15 A2995 RMK A01 T03460146  RH  030%=      5-min Rain = 0
KES1 120037Z 16009KT 35/15 A2995 RMK A01 T03470146  RH  030%=      5-min Rain = 0
KES1 120038Z 16009KT 35/15 A2995 RMK A01 T03460145  RH  030%=      5-min Rain = 0
KES1 120039Z 16010KT 35/15 A2995 RMK A01 T03470146  RH  030%=      5-min Rain = 0
KES1 120040Z 16011KT 35/15 A2995 RMK A01 T03460145  RH  030%=      5-min Rain = 0
KES1 120041Z 15007KT 35/15 A2995 RMK A01 T03470146  RH  030%=      5-min Rain = 0
KES1 120042Z 15007KT 35/15 A2995 RMK A01 T03460148  RH  030%=      5-min Rain = 0
KES1 120043Z 15006KT 35/15 A2995 RMK A01 T03450148  RH  031%=      5-min Rain = 0
KES1 120044Z 15008KT 35/15 A2995 RMK A01 T03450148  RH  031%=      5-min Rain = 0
KES1 120045Z 15008KT 34/15 A2995 RMK A01 T03440148  RH  031%=      5-min Rain = 0
KES1 120046Z 14007KT 34/15 A2995 RMK A01 T03440147  RH  031%=      5-min Rain = 0
KES1 120047Z 15009KT 34/15 A2995 RMK A01 T03440147  RH  031%=      5-min Rain = 0
KES1 120048Z 15008KT 34/15 A2995 RMK A01 T03440146  RH  031%=      5-min Rain = 0
KES1 120049Z 15008KT 34/15 A2995 RMK A01 T03440146  RH  031%=      5-min Rain = 0
KES1 120050Z 14007KT 34/15 A2995 RMK A01 T03430147  RH  031%=      5-min Rain = 0
KES1 120051Z 15006KT 34/15 A2996 RMK A01 T03430147  RH  031%=      5-min Rain = 0
KES1 120052Z 15008KT 34/15 A2996 RMK A01 T03420147  RH  031%=      5-min Rain = 0
KES1 120053Z 15006KT 34/15 A2996 RMK A01 T03420147  RH  031%=      5-min Rain = 0
KES1 120054Z 15005KT 34/15 A2996 RMK A01 T03420148  RH  031%=      5-min Rain = 0
KES1 120055Z 14005KT 34/15 A2996 RMK A01 T03410148  RH  031%=      5-min Rain = 0
KES1 120056Z 15006KT 34/15 A2996 RMK A01 T03410147  RH  031%=      5-min Rain = 0
KES1 120057Z 15007KT 34/15 A2996 RMK A01 T03410147  RH  031%=      5-min Rain = 0
KES1 120058Z 15007KT 34/15 A2996 RMK A01 T03410147  RH  031%=      5-min Rain = 0
KES1 120059Z 15006KT 34/15 A2996 RMK A01 T03400147  RH  031%=      5-min Rain = 0
KES1 120100Z 15007KT 34/15 A2996 RMK A01 T03400147  RH  031%=      5-min Rain = 0
KES1 120101Z 15005KT 34/15 A2996 RMK A01 T03390147  RH  031%=      5-min Rain = 0
KES1 120102Z 14005KT 34/15 A2996 RMK A01 T03390148  RH  032%=      5-min Rain = 0
KES1 120103Z 14006KT 34/15 A2996 RMK A01 T03380148  RH  032%=      5-min Rain = 0
KES1 120104Z 14006KT 34/15 A2996 RMK A01 T03380147  RH  032%=      5-min Rain = 0
KES1 120105Z 14005KT 34/15 A2996 RMK A01 T03380147  RH  032%=      5-min Rain = 0
KES1 120106Z 14005KT 34/15 A2996 RMK A01 T03380148  RH  032%=      5-min Rain = 0
KES1 120107Z 14005KT 34/15 A2996 RMK A01 T03370147  RH  032%=      5-min Rain = 0
KES1 120108Z 14007KT 34/15 A2996 RMK A01 T03370147  RH  032%=      5-min Rain = 0
KES1 120109Z 14006KT 34/15 A2996 RMK A01 T03370146  RH  032%=      5-min Rain = 0
KES1 120110Z 14004KT 34/15 A2996 RMK A01 T03370146  RH  032%=      5-min Rain = 0
KES1 120111Z 14006KT 34/15 A2996 RMK A01 T03370146  RH  032%=      5-min Rain = 0
KES1 120112Z 13005KT 34/15 A2996 RMK A01 T03370146  RH  032%=      5-min Rain = 0
KES1 120113Z 14004KT 34/15 A2996 RMK A01 T03380148  RH  032%=      5-min Rain = 0
KES1 120114Z 14006KT 34/15 A2996 RMK A01 T03380148  RH  032%=      5-min Rain = 0
KES1 120115Z 14006KT 34/15 A2996 RMK A01 T03380147  RH  032%=      5-min Rain = 0
KES1 120116Z 14006KT 34/15 A2996 RMK A01 T03380147  RH  032%=      5-min Rain = 0
KES1 120117Z 14007KT 34/15 A2996 RMK A01 T03380147  RH  032%=      5-min Rain = 0
KES1 120118Z 14007KT 34/15 A2996 RMK A01 T03380147  RH  032%=      5-min Rain = 0
KES1 120119Z 14006KT 34/15 A2996 RMK A01 T03380147  RH  032%=      5-min Rain = 0
KES1 120120Z 14005KT 34/15 A2996 RMK A01 T03380148  RH  032%=      5-min Rain = 0
KES1 120121Z 14007KT 34/15 A2996 RMK A01 T03380148  RH  032%=      5-min Rain = 0
KES1 120122Z 14006KT 34/15 A2996 RMK A01 T03370148  RH  032%=      5-min Rain = 0
KES1 120123Z 14005KT 34/15 A2996 RMK A01 T03370149  RH  032%=      5-min Rain = 0
KES1 120124Z 14006KT 34/15 A2996 RMK A01 T03360149  RH  032%=      5-min Rain = 0
KES1 120125Z 14005KT 34/15 A2996 RMK A01 T03360150  RH  033%=      5-min Rain = 0
KES1 120126Z 13007KT 34/15 A2996 RMK A01 T03350150  RH  033%=      5-min Rain = 0
KES1 120127Z 14006KT 33/15 A2996 RMK A01 T03340149  RH  033%=      5-min Rain = 0
KES1 120128Z 14006KT 33/15 A2996 RMK A01 T03340149  RH  033%=      5-min Rain = 0
KES1 120129Z 14005KT 33/15 A2996 RMK A01 T03340149  RH  033%=      5-min Rain = 0
KES1 120130Z 14006KT 33/15 A2996 RMK A01 T03340150  RH  033%=      5-min Rain = 0
KES1 120131Z 13006KT 33/15 A2996 RMK A01 T03330150  RH  033%=      5-min Rain = 0
KES1 120132Z 13007KT 33/15 A2996 RMK A01 T03330149  RH  033%=      5-min Rain = 0
KES1 120133Z 13006KT 33/15 A2996 RMK A01 T03330149  RH  033%=      5-min Rain = 0
KES1 120134Z 13006KT 33/15 A2996 RMK A01 T03320150  RH  033%=      5-min Rain = 0
KES1 120135Z 13006KT 33/15 A2996 RMK A01 T03320150  RH  034%=      5-min Rain = 0
KES1 120136Z 13006KT 33/15 A2996 RMK A01 T03310150  RH  034%=      5-min Rain = 0
KES1 120137Z 13006KT 33/15 A2996 RMK A01 T03300150  RH  034%=      5-min Rain = 0
KES1 120138Z 14006KT 33/15 A2996 RMK A01 T03300150  RH  034%=      5-min Rain = 0
KES1 120139Z 14006KT 33/15 A2996 RMK A01 T03290150  RH  034%=      5-min Rain = 0
KES1 120140Z 14006KT 33/15 A2996 RMK A01 T03290150  RH  034%=      5-min Rain = 0
KES1 120141Z 13006KT 33/15 A2996 RMK A01 T03290150  RH  034%=      5-min Rain = 0
KES1 120142Z 14005KT 33/15 A2996 RMK A01 T03280151  RH  034%=      5-min Rain = 0
KES1 120143Z 14005KT 33/15 A2996 RMK A01 T03280151  RH  035%=      5-min Rain = 0
KES1 120144Z 13006KT 33/15 A2996 RMK A01 T03270151  RH  035%=      5-min Rain = 0
KES1 120145Z 14006KT 33/15 A2996 RMK A01 T03260151  RH  035%=      5-min Rain = 0
KES1 120146Z 14006KT 33/15 A2996 RMK A01 T03260151  RH  035%=      5-min Rain = 0
KES1 120147Z 13006KT 33/15 A2997 RMK A01 T03260151  RH  035%=      5-min Rain = 0
KES1 120148Z 13006KT 33/15 A2997 RMK A01 T03260151  RH  035%=      5-min Rain = 0
KES1 120149Z 13006KT 33/15 A2997 RMK A01 T03260151  RH  035%=      5-min Rain = 0
KES1 120150Z 13007KT 33/15 A2997 RMK A01 T03250151  RH  035%=      5-min Rain = 0
KES1 120151Z 13006KT 33/15 A2997 RMK A01 T03250151  RH  035%=      5-min Rain = 0
KES1 120152Z 13007KT 33/15 A2997 RMK A01 T03250152  RH  035%=      5-min Rain = 0
KES1 120153Z 13007KT 32/15 A2997 RMK A01 T03240151  RH  035%=      5-min Rain = 0
KES1 120154Z 13007KT 33/15 A2997 RMK A01 T03250152  RH  035%=      5-min Rain = 0
KES1 120155Z 13007KT 32/15 A2997 RMK A01 T03240152  RH  035%=      5-min Rain = 0
KES1 120156Z 13007KT 32/15 A2997 RMK A01 T03240152  RH  035%=      5-min Rain = 0
KES1 120157Z 13007KT 32/15 A2997 RMK A01 T03230152  RH  035%=      5-min Rain = 0
KES1 120158Z 13007KT 32/15 A2997 RMK A01 T03240152  RH  036%=      5-min Rain = 0
KES1 120159Z 13007KT 32/15 A2997 RMK A01 T03240152  RH  036%=      5-min Rain = 0
KES1 120200Z 13007KT 32/15 A2997 RMK A01 T03230152  RH  036%=      5-min Rain = 0
KES1 120201Z 13006KT 32/15 A2997 RMK A01 T03230152  RH  036%=      5-min Rain = 0
KES1 120202Z 13006KT 32/15 A2997 RMK A01 T03230152  RH  036%=      5-min Rain = 0
KES1 120203Z 13006KT 32/15 A2997 RMK A01 T03230152  RH  036%=      5-min Rain = 0
KES1 120204Z 13006KT 32/15 A2997 RMK A01 T03230152  RH  036%=      5-min Rain = 0
KES1 120205Z 13006KT 32/15 A2997 RMK A01 T03230153  RH  036%=      5-min Rain = 0
KES1 120206Z 13006KT 32/15 A2997 RMK A01 T03230153  RH  036%=      5-min Rain = 0
KES1 120207Z 13006KT 32/15 A2997 RMK A01 T03220153  RH  036%=      5-min Rain = 0
KES1 120208Z 13005KT 32/15 A2997 RMK A01 T03220153  RH  036%=      5-min Rain = 0
KES1 120209Z 13006KT 32/15 A2997 RMK A01 T03220153  RH  036%=      5-min Rain = 0
KES1 120210Z 12006KT 32/15 A2997 RMK A01 T03220153  RH  036%=      5-min Rain = 0
KES1 120211Z 13007KT 32/15 A2997 RMK A01 T03220153  RH  036%=      5-min Rain = 0
KES1 120212Z 13007KT 32/15 A2997 RMK A01 T03220153  RH  036%=      5-min Rain = 0
KES1 120213Z 13006KT 32/15 A2997 RMK A01 T03220153  RH  036%=      5-min Rain = 0
KES1 120214Z 13006KT 32/15 A2997 RMK A01 T03220152  RH  036%=      5-min Rain = 0
KES1 120215Z 13006KT 32/15 A2997 RMK A01 T03220152  RH  036%=      5-min Rain = 0
KES1 120216Z 13007KT 32/15 A2997 RMK A01 T03220153  RH  036%=      5-min Rain = 0
KES1 120217Z 13006KT 32/15 A2998 RMK A01 T03220153  RH  036%=      5-min Rain = 0
KES1 120218Z 13005KT 32/15 A2998 RMK A01 T03220154  RH  036%=      5-min Rain = 0
KES1 120219Z 13007KT 32/15 A2998 RMK A01 T03210153  RH  036%=      5-min Rain = 0
KES1 120220Z 13007KT 32/15 A2998 RMK A01 T03200153  RH  036%=      5-min Rain = 0
KES1 120221Z 13006KT 32/15 A2998 RMK A01 T03200153  RH  036%=      5-min Rain = 0
KES1 120222Z 13007KT 32/15 A2998 RMK A01 T03200153  RH  037%=      5-min Rain = 0
KES1 120223Z 13007KT 32/15 A2998 RMK A01 T03190153  RH  037%=      5-min Rain = 0
KES1 120224Z 13006KT 32/15 A2998 RMK A01 T03190153  RH  037%=      5-min Rain = 0
KES1 120225Z 13006KT 32/15 A2998 RMK A01 T03190154  RH  037%=      5-min Rain = 0
KES1 120226Z 13006KT 32/15 A2998 RMK A01 T03190154  RH  037%=      5-min Rain = 0
KES1 120227Z 13006KT 32/15 A2998 RMK A01 T03190154  RH  037%=      5-min Rain = 0
KES1 120228Z 13006KT 32/15 A2998 RMK A01 T03190154  RH  037%=      5-min Rain = 0
KES1 120229Z 13006KT 32/15 A2998 RMK A01 T03180154  RH  037%=      5-min Rain = 0
KES1 120230Z 13006KT 32/15 A2998 RMK A01 T03180154  RH  037%=      5-min Rain = 0
KES1 120231Z 13006KT 32/15 A2998 RMK A01 T03170154  RH  037%=      5-min Rain = 0
KES1 120232Z 13007KT 32/15 A2998 RMK A01 T03170154  RH  037%=      5-min Rain = 0
KES1 120233Z 13006KT 32/15 A2998 RMK A01 T03160153  RH  037%=      5-min Rain = 0
KES1 120234Z 13006KT 32/15 A2998 RMK A01 T03160154  RH  038%=      5-min Rain = 0
KES1 120235Z 12007KT 32/15 A2998 RMK A01 T03160154  RH  038%=      5-min Rain = 0
KES1 120236Z 13006KT 32/15 A2998 RMK A01 T03150154  RH  038%=      5-min Rain = 0
KES1 120237Z 13006KT 32/15 A2998 RMK A01 T03150154  RH  038%=      5-min Rain = 0
KES1 120238Z 13006KT 31/15 A2998 RMK A01 T03140154  RH  038%=      5-min Rain = 0
KES1 120239Z 13006KT 31/15 A2998 RMK A01 T03140154  RH  038%=      5-min Rain = 0
KES1 120240Z 13006KT 31/15 A2998 RMK A01 T03140154  RH  038%=      5-min Rain = 0
KES1 120241Z 13007KT 31/15 A2998 RMK A01 T03130154  RH  038%=      5-min Rain = 0
KES1 120242Z 13007KT 31/15 A2998 RMK A01 T03130154  RH  038%=      5-min Rain = 0
KES1 120243Z 13007KT 31/16 A2998 RMK A01 T03140155  RH  038%=      5-min Rain = 0
KES1 120244Z 13007KT 31/15 A2998 RMK A01 T03140154  RH  038%=      5-min Rain = 0
KES1 120245Z 13007KT 31/16 A2998 RMK A01 T03140155  RH  038%=      5-min Rain = 0
KES1 120246Z 13008KT 31/15 A2998 RMK A01 T03140154  RH  038%=      5-min Rain = 0
KES1 120247Z 13007KT 31/15 A2998 RMK A01 T03140154  RH  038%=      5-min Rain = 0
KES1 120248Z 13008KT 31/15 A2998 RMK A01 T03130153  RH  038%=      5-min Rain = 0
KES1 120249Z 14007KT 31/15 A2998 RMK A01 T03140153  RH  038%=      5-min Rain = 0
KES1 120250Z 14007KT 31/15 A2998 RMK A01 T03130153  RH  038%=      5-min Rain = 0
KES1 120251Z 14008KT 31/15 A2998 RMK A01 T03140153  RH  038%=      5-min Rain = 0
KES1 120252Z 14008KT 31/15 A2998 RMK A01 T03140153  RH  038%=      5-min Rain = 0
KES1 120253Z 14008KT 31/15 A2998 RMK A01 T03140152  RH  038%=      5-min Rain = 0
KES1 120254Z 14006KT 31/15 A2998 RMK A01 T03140153  RH  038%=      5-min Rain = 0
KES1 120255Z 14007KT 31/15 A2998 RMK A01 T03140153  RH  038%=      5-min Rain = 0
KES1 120256Z 14007KT 31/15 A2998 RMK A01 T03140153  RH  038%=      5-min Rain = 0
KES1 120257Z 14006KT 31/15 A2998 RMK A01 T03140153  RH  038%=      5-min Rain = 0
KES1 120258Z 14007KT 31/15 A2998 RMK A01 T03130153  RH  038%=      5-min Rain = 0
KES1 120259Z 14007KT 31/15 A2998 RMK A01 T03130152  RH  038%=      5-min Rain = 0
KES1 120300Z 14006KT 31/15 A2998 RMK A01 T03130152  RH  038%=      5-min Rain = 0
KES1 120301Z 14007KT 31/15 A2998 RMK A01 T03130153  RH  038%=      5-min Rain = 0
KES1 120302Z 14007KT 31/15 A2999 RMK A01 T03130152  RH  038%=      5-min Rain = 0
KES1 120303Z 14007KT 31/15 A2999 RMK A01 T03130152  RH  038%=      5-min Rain = 0
KES1 120304Z 14006KT 31/15 A2999 RMK A01 T03120152  RH  038%=      5-min Rain = 0
KES1 120305Z 14007KT 31/15 A2999 RMK A01 T03130152  RH  038%=      5-min Rain = 0
KES1 120306Z 14007KT 31/15 A2999 RMK A01 T03120152  RH  038%=      5-min Rain = 0
KES1 120307Z 14007KT 31/15 A2999 RMK A01 T03120152  RH  038%=      5-min Rain = 0
KES1 120308Z 14006KT 31/15 A2999 RMK A01 T03120152  RH  038%=      5-min Rain = 0
KES1 120309Z 14007KT 31/15 A2999 RMK A01 T03120152  RH  038%=      5-min Rain = 0
KES1 120310Z 14007KT 31/15 A2999 RMK A01 T03110151  RH  038%=      5-min Rain = 0
KES1 120311Z 14007KT 31/15 A2999 RMK A01 T03120151  RH  038%=      5-min Rain = 0
KES1 120312Z 13007KT 31/15 A2999 RMK A01 T03120151  RH  038%=      5-min Rain = 0
KES1 120313Z 13008KT 31/15 A2999 RMK A01 T03120151  RH  038%=      5-min Rain = 0
KES1 120314Z 13007KT 31/15 A2999 RMK A01 T03120151  RH  038%=      5-min Rain = 0
KES1 120315Z 14007KT 31/15 A2999 RMK A01 T03120151  RH  038%=      5-min Rain = 0
KES1 120316Z 13007KT 31/15 A2999 RMK A01 T03120151  RH  038%=      5-min Rain = 0
KES1 120317Z 13008KT 31/15 A2999 RMK A01 T03110151  RH  038%=      5-min Rain = 0
KES1 120318Z 13007KT 31/15 A2999 RMK A01 T03110151  RH  038%=      5-min Rain = 0
KES1 120319Z 14008KT 31/15 A2999 RMK A01 T03110151  RH  038%=      5-min Rain = 0
KES1 120320Z 14006KT 31/15 A30 RMK A01 T03110151  RH  038%=      5-min Rain = 0
KES1 120321Z 14008KT 31/15 A30 RMK A01 T03100151  RH  038%=      5-min Rain = 0
KES1 120322Z 14007KT 31/15 A30 RMK A01 T03100151  RH  038%=      5-min Rain = 0
KES1 120323Z 14007KT 31/15 A30 RMK A01 T03100151  RH  038%=      5-min Rain = 0
KES1 120324Z 14007KT 31/15 A30 RMK A01 T03100151  RH  038%=      5-min Rain = 0
KES1 120325Z 14006KT 31/15 A30 RMK A01 T03100151  RH  038%=      5-min Rain = 0
KES1 120326Z 14007KT 31/15 A30 RMK A01 T03100151  RH  038%=      5-min Rain = 0
KES1 120327Z 14006KT 31/15 A30 RMK A01 T03090151  RH  038%=      5-min Rain = 0
KES1 120328Z 14007KT 31/15 A30 RMK A01 T03090151  RH  038%=      5-min Rain = 0
KES1 120329Z 13007KT 31/15 A30 RMK A01 T03090151  RH  038%=      5-min Rain = 0
KES1 120330Z 14007KT 31/15 A30 RMK A01 T03080151  RH  039%=      5-min Rain = 0
KES1 120331Z 14006KT 31/15 A30 RMK A01 T03080151  RH  039%=      5-min Rain = 0
KES1 120332Z 14006KT 31/15 A30 RMK A01 T03080151  RH  039%=      5-min Rain = 0
KES1 120333Z 14006KT 31/15 A30 RMK A01 T03080151  RH  039%=      5-min Rain = 0
KES1 120334Z 14006KT 31/15 A30 RMK A01 T03070151  RH  039%=      5-min Rain = 0
KES1 120335Z 15006KT 31/15 A30 RMK A01 T03060151  RH  039%=      5-min Rain = 0
KES1 120336Z 14006KT 31/15 A30 RMK A01 T03060151  RH  039%=      5-min Rain = 0
KES1 120337Z 14007KT 31/15 A30 RMK A01 T03060151  RH  039%=      5-min Rain = 0
KES1 120338Z 14006KT 31/15 A30 RMK A01 T03060151  RH  039%=      5-min Rain = 0
KES1 120339Z 14006KT 31/15 A30 RMK A01 T03060151  RH  039%=      5-min Rain = 0
KES1 120340Z 14006KT 31/15 A30 RMK A01 T03060151  RH  039%=      5-min Rain = 0
KES1 120341Z 14006KT 31/15 A30 RMK A01 T03060151  RH  039%=      5-min Rain = 0
KES1 120342Z 14007KT 31/15 A30 RMK A01 T03060151  RH  039%=      5-min Rain = 0
KES1 120343Z 14007KT 31/15 A30 RMK A01 T03060151  RH  039%=      5-min Rain = 0
KES1 120344Z 14006KT 31/15 A3001 RMK A01 T03060151  RH  039%=      5-min Rain = 0
KES1 120345Z 14007KT 31/15 A3001 RMK A01 T03060151  RH  039%=      5-min Rain = 0
KES1 120346Z 14006KT 31/15 A3001 RMK A01 T03060150  RH  039%=      5-min Rain = 0
KES1 120347Z 14007KT 31/15 A3001 RMK A01 T03060150  RH  039%=      5-min Rain = 0
KES1 120348Z 14006KT 31/15 A3001 RMK A01 T03050150  RH  039%=      5-min Rain = 0
KES1 120349Z 14006KT 31/15 A3001 RMK A01 T03050150  RH  039%=      5-min Rain = 0
KES1 120350Z 14006KT 31/15 A3001 RMK A01 T03050150  RH  039%=      5-min Rain = 0
KES1 120351Z 13006KT 31/15 A3001 RMK A01 T03050150  RH  039%=      5-min Rain = 0
KES1 120352Z 13007KT 31/15 A3001 RMK A01 T03050150  RH  039%=      5-min Rain = 0
KES1 120353Z 13006KT 31/15 A3001 RMK A01 T03060150  RH  039%=      5-min Rain = 0
KES1 120354Z 13007KT 31/15 A3001 RMK A01 T03060150  RH  039%=      5-min Rain = 0
KES1 120355Z 14006KT 31/15 A3001 RMK A01 T03060150  RH  039%=      5-min Rain = 0
KES1 120356Z 13006KT 31/15 A3001 RMK A01 T03060150  RH  039%=      5-min Rain = 0
KES1 120357Z 13006KT 31/15 A3001 RMK A01 T03060150  RH  039%=      5-min Rain = 0
KES1 120358Z 13006KT 31/15 A3001 RMK A01 T03050150  RH  039%=      5-min Rain = 0
KES1 120359Z 13006KT 31/15 A3001 RMK A01 T03060150  RH  039%=      5-min Rain = 0
KES1 120400Z 13006KT 31/15 A3001 RMK A01 T03060151  RH  039%=      5-min Rain = 0
KES1 120401Z 14006KT 31/15 A3001 RMK A01 T03060151  RH  039%=      5-min Rain = 0
KES1 120402Z 13005KT 31/15 A3001 RMK A01 T03060151  RH  039%=      5-min Rain = 0
KES1 120403Z 13006KT 31/15 A3001 RMK A01 T03050151  RH  039%=      5-min Rain = 0
KES1 120404Z 13006KT 31/15 A3001 RMK A01 T03050151  RH  039%=      5-min Rain = 0
KES1 120405Z 13006KT 31/15 A3001 RMK A01 T03050152  RH  040%=      5-min Rain = 0
KES1 120406Z 13006KT 30/15 A3001 RMK A01 T03040152  RH  040%=      5-min Rain = 0
KES1 120407Z 13007KT 30/15 A3001 RMK A01 T03040152  RH  040%=      5-min Rain = 0
KES1 120408Z 13006KT 30/15 A3001 RMK A01 T03040152  RH  040%=      5-min Rain = 0
KES1 120409Z 13006KT 30/15 A3001 RMK A01 T03040152  RH  040%=      5-min Rain = 0
KES1 120410Z 13006KT 30/15 A3001 RMK A01 T03040153  RH  040%=      5-min Rain = 0
KES1 120411Z 13006KT 30/15 A3001 RMK A01 T03030152  RH  040%=      5-min Rain = 0
KES1 120412Z 13006KT 30/15 A3001 RMK A01 T03030153  RH  040%=      5-min Rain = 0
KES1 120413Z 13006KT 30/15 A3001 RMK A01 T03030153  RH  040%=      5-min Rain = 0
KES1 120414Z 13006KT 30/15 A3001 RMK A01 T03020153  RH  040%=      5-min Rain = 0
KES1 120415Z 13007KT 30/15 A3001 RMK A01 T03030153  RH  040%=      5-min Rain = 0
KES1 120416Z 13006KT 30/15 A3001 RMK A01 T03030153  RH  040%=      5-min Rain = 0
KES1 120417Z 13006KT 30/15 A3001 RMK A01 T03020153  RH  040%=      5-min Rain = 0
KES1 120418Z 13006KT 30/15 A3001 RMK A01 T03020153  RH  041%=      5-min Rain = 0
KES1 120419Z 13006KT 30/15 A3001 RMK A01 T03020153  RH  041%=      5-min Rain = 0
KES1 120420Z 13006KT 30/15 A3001 RMK A01 T03020153  RH  041%=      5-min Rain = 0
KES1 120421Z 13006KT 30/15 A3001 RMK A01 T03010153  RH  041%=      5-min Rain = 0
KES1 120422Z 13007KT 30/15 A3001 RMK A01 T03000153  RH  041%=      5-min Rain = 0
KES1 120423Z 13006KT 30/15 A3001 RMK A01 T03010153  RH  041%=      5-min Rain = 0
KES1 120424Z 13006KT 30/15 A3001 RMK A01 T03000153  RH  041%=      5-min Rain = 0
KES1 120425Z 13007KT 30/15 A3001 RMK A01 T03000154  RH  041%=      5-min Rain = 0
KES1 120426Z 13006KT 30/15 A3001 RMK A01 T03000154  RH  041%=      5-min Rain = 0
KES1 120427Z 13007KT 30/15 A3001 RMK A01 T02990153  RH  041%=      5-min Rain = 0
KES1 120428Z 13007KT 30/15 A3001 RMK A01 T02990153  RH  041%=      5-min Rain = 0
KES1 120429Z 13008KT 30/15 A3001 RMK A01 T02990153  RH  041%=      5-min Rain = 0
KES1 120430Z 13007KT 30/15 A3001 RMK A01 T02990152  RH  041%=      5-min Rain = 0
KES1 120431Z 13008KT 30/15 A3001 RMK A01 T02990153  RH  041%=      5-min Rain = 0
KES1 120432Z 13008KT 30/15 A3001 RMK A01 T02990152  RH  041%=      5-min Rain = 0
KES1 120433Z 13007KT 30/15 A3001 RMK A01 T03000153  RH  041%=      5-min Rain = 0
KES1 120434Z 13008KT 30/15 A3001 RMK A01 T03000153  RH  041%=      5-min Rain = 0
KES1 120435Z 13008KT 30/15 A3001 RMK A01 T03000153  RH  041%=      5-min Rain = 0
KES1 120436Z 13008KT 30/15 A3001 RMK A01 T03000153  RH  041%=      5-min Rain = 0
KES1 120437Z 13007KT 30/15 A3001 RMK A01 T03000152  RH  041%=      5-min Rain = 0
KES1 120438Z 13008KT 30/15 A3002 RMK A01 T02990153  RH  041%=      5-min Rain = 0
KES1 120439Z 13009KT 30/15 A3002 RMK A01 T02990152  RH  041%=      5-min Rain = 0
KES1 120440Z 13008KT 30/15 A3002 RMK A01 T02990152  RH  041%=      5-min Rain = 0
KES1 120441Z 13008KT 30/15 A3002 RMK A01 T02990152  RH  041%=      5-min Rain = 0
KES1 120442Z 13009KT 30/15 A3002 RMK A01 T02990153  RH  041%=      5-min Rain = 0
KES1 120443Z 13009KT 30/15 A3002 RMK A01 T02990153  RH  041%=      5-min Rain = 0
KES1 120444Z 13011KT 30/15 A3002 RMK A01 T03000154  RH  041%=      5-min Rain = 0
KES1 120445Z 13009KT 30/15 A3002 RMK A01 T03000154  RH  041%=      5-min Rain = 0
KES1 120446Z 13010KT 30/15 A3002 RMK A01 T03010154  RH  041%=      5-min Rain = 0
KES1 120447Z 13011KT 30/16 A3002 RMK A01 T03010155  RH  041%=      5-min Rain = 0
KES1 120448Z 13010KT 30/16 A3002 RMK A01 T03010155  RH  041%=      5-min Rain = 0
KES1 120449Z 14010KT 30/16 A3002 RMK A01 T03020156  RH  041%=      5-min Rain = 0
KES1 120450Z 13011KT 30/16 A3002 RMK A01 T03020156  RH  041%=      5-min Rain = 0
KES1 120451Z 13009KT 30/16 A3002 RMK A01 T03020156  RH  041%=      5-min Rain = 0
KES1 120452Z 14009KT 30/16 A3001 RMK A01 T03020156  RH  041%=      5-min Rain = 0
KES1 120453Z 14009KT 30/16 A3002 RMK A01 T03010156  RH  041%=      5-min Rain = 0
KES1 120454Z 13009KT 30/16 A3001 RMK A01 T03010156  RH  042%=      5-min Rain = 0
KES1 120455Z 14010KT 30/16 A3001 RMK A01 T03010156  RH  042%=      5-min Rain = 0
KES1 120456Z 14010KT 30/16 A3002 RMK A01 T03000157  RH  042%=      5-min Rain = 0
KES1 120457Z 13010KT 30/16 A3002 RMK A01 T03000157  RH  042%=      5-min Rain = 0
KES1 120458Z 14010KT 30/16 A3002 RMK A01 T03000157  RH  042%=      5-min Rain = 0
KES1 120459Z 14009KT 30/16 A3002 RMK A01 T02990157  RH  042%=      5-min Rain = 0

Page generated in 0.0325 seconds.